ELY87 LLBG-VTSP
Flight info
| Callsign | ELY87 |
|---|---|
| Flight time | N/A |
| Altitude | 35000 |
| Route | SALAM N134 OSAMA DCT EGLOT DCT GIBET M449 WEJ T510 RBG B544 JDW G650 RASKA/N0486F340 G650 DULAB/N0484F360 G650 KONET/N0483F350 DCT XADOX DCT DWA UW885 ARSHI/N0481F360 UW885 HARGA/N0481F350 UT382 DAROT/N0479F370 UT382 AVEDA UT383 UNRED/N0477F380 UT383 VUTAS/N0444F290 L875 MMV/N0473F390 P761 DUMAR/N0475F410 DCT AGEGA L510 IDKUT L645 UBNEN UBNEN1C |
| Aircraft | B772/H-SDE2E3FGHIJ5LORVWXY/LB1D1 |
Departure
| Time | 2026-05-01 07:31 |
|---|---|
| Airport | Ben Gurion International Airport (LLBG) |
Arrival
| Time | N/A |
|---|---|
| Airport | Phuket International Airport (VTSP) |
| Time | Latitude | Longitude | Altitude | Speed | Heading |
|---|---|---|---|---|---|
| 2026-05-01 07:23 | 32.00312 | 34.87723 | 140 ft | 6 kts | 29° |
| 2026-05-01 07:23 | 32.00439 | 34.87811 | 140 ft | 11 kts | 31° |
| 2026-05-01 07:24 | 32.00502 | 34.87856 | 140 ft | 10 kts | 32° |
| 2026-05-01 07:24 | 32.00561 | 34.87900 | 140 ft | 9 kts | 32° |
| 2026-05-01 07:24 | 32.00617 | 34.87941 | 140 ft | 9 kts | 32° |
| 2026-05-01 07:24 | 32.00675 | 34.87982 | 140 ft | 10 kts | 31° |
| 2026-05-01 07:25 | 32.00743 | 34.88031 | 140 ft | 13 kts | 31° |
| 2026-05-01 07:25 | 32.00841 | 34.88102 | 140 ft | 19 kts | 32° |
| 2026-05-01 07:25 | 32.00967 | 34.88191 | 140 ft | 20 kts | 32° |
| 2026-05-01 07:25 | 32.01085 | 34.88276 | 140 ft | 18 kts | 31° |
| 2026-05-01 07:26 | 32.01192 | 34.88353 | 140 ft | 16 kts | 31° |
| 2026-05-01 07:26 | 32.01284 | 34.88427 | 140 ft | 15 kts | 42° |
| 2026-05-01 07:26 | 32.01359 | 34.88516 | 140 ft | 15 kts | 49° |
| 2026-05-01 07:26 | 32.01419 | 34.88614 | 140 ft | 14 kts | 59° |
| 2026-05-01 07:27 | 32.01464 | 34.88721 | 140 ft | 14 kts | 68° |
| 2026-05-01 07:27 | 32.01494 | 34.88832 | 140 ft | 14 kts | 76° |
| 2026-05-01 07:27 | 32.01511 | 34.88945 | 140 ft | 13 kts | 79° |
| 2026-05-01 07:27 | 32.01529 | 34.89056 | 140 ft | 13 kts | 80° |
| 2026-05-01 07:28 | 32.01546 | 34.89171 | 140 ft | 14 kts | 78° |
| 2026-05-01 07:28 | 32.01566 | 34.89294 | 140 ft | 16 kts | 79° |
| 2026-05-01 07:28 | 32.01586 | 34.89430 | 140 ft | 17 kts | 80° |
| 2026-05-01 07:28 | 32.01608 | 34.89577 | 140 ft | 18 kts | 81° |
| 2026-05-01 07:29 | 32.01634 | 34.89671 | 140 ft | 10 kts | 45° |
| 2026-05-01 07:29 | 32.01693 | 34.89713 | 140 ft | 9 kts | 28° |
| 2026-05-01 07:29 | 32.01749 | 34.89749 | 140 ft | 8 kts | 30° |
| 2026-05-01 07:29 | 32.01802 | 34.89773 | 140 ft | 7 kts | 352° |
| 2026-05-01 07:30 | 32.01836 | 34.89734 | 140 ft | 6 kts | 287° |
| 2026-05-01 07:30 | 32.01836 | 34.89686 | 140 ft | 0 kts | 259° |
| 2026-05-01 07:30 | 32.01835 | 34.89681 | 140 ft | 5 kts | 259° |
| 2026-05-01 07:30 | 32.01796 | 34.89426 | 140 ft | 65 kts | 259° |
| 2026-05-01 07:31 | 32.01674 | 34.88628 | 140 ft | 129 kts | 260° |
| 2026-05-01 07:31 | 32.00987 | 34.84406 | 1342 ft | 188 kts | 256° |
| 2026-05-01 07:32 | 32.00310 | 34.81314 | 1760 ft | 206 kts | 256° |
| 2026-05-01 07:32 | 31.99942 | 34.79653 | 1941 ft | 217 kts | 256° |
| 2026-05-01 07:33 | 31.99210 | 34.76007 | 2549 ft | 236 kts | 262° |
| 2026-05-01 07:33 | 31.99315 | 34.74048 | 3052 ft | 236 kts | 292° |
| 2026-05-01 07:33 | 32.00637 | 34.70304 | 3852 ft | 251 kts | 288° |
| 2026-05-01 07:34 | 32.01215 | 34.68289 | 4397 ft | 253 kts | 289° |
| 2026-05-01 07:34 | 32.02465 | 34.64225 | 5492 ft | 257 kts | 290° |
| 2026-05-01 07:34 | 32.03024 | 34.62150 | 6007 ft | 259 kts | 279° |
| 2026-05-01 07:35 | 32.03237 | 34.59943 | 6522 ft | 261 kts | 274° |
| 2026-05-01 07:35 | 32.03363 | 34.57790 | 7022 ft | 262 kts | 274° |
| 2026-05-01 07:35 | 32.03704 | 34.55654 | 7472 ft | 264 kts | 294° |
| 2026-05-01 07:35 | 32.04808 | 34.53879 | 7860 ft | 270 kts | 320° |
| 2026-05-01 07:36 | 32.06509 | 34.52855 | 7971 ft | 277 kts | 347° |
| 2026-05-01 07:36 | 32.08484 | 34.52911 | 7986 ft | 276 kts | 17° |
| 2026-05-01 07:36 | 32.10161 | 34.54079 | 7985 ft | 278 kts | 46° |
| 2026-05-01 07:36 | 32.11155 | 34.56089 | 7995 ft | 281 kts | 77° |
| 2026-05-01 07:37 | 32.10403 | 34.60445 | 8007 ft | 279 kts | 121° |
| 2026-05-01 07:37 | 32.09403 | 34.62458 | 7997 ft | 279 kts | 122° |
| 2026-05-01 07:37 | 32.08423 | 34.64405 | 7996 ft | 277 kts | 122° |
| 2026-05-01 07:38 | 32.07438 | 34.66356 | 7997 ft | 277 kts | 122° |
| 2026-05-01 07:38 | 32.06452 | 34.68308 | 7997 ft | 277 kts | 122° |
| 2026-05-01 07:38 | 32.04477 | 34.72216 | 7997 ft | 276 kts | 122° |
| 2026-05-01 07:39 | 32.03487 | 34.74175 | 7997 ft | 276 kts | 122° |
| 2026-05-01 07:39 | 32.02511 | 34.76104 | 7997 ft | 276 kts | 122° |
| 2026-05-01 07:39 | 32.00517 | 34.80040 | 7997 ft | 277 kts | 122° |
| 2026-05-01 07:40 | 31.99535 | 34.81978 | 7997 ft | 276 kts | 122° |
| 2026-05-01 07:40 | 31.98544 | 34.83933 | 7997 ft | 276 kts | 122° |
| 2026-05-01 07:40 | 31.97566 | 34.85863 | 7997 ft | 278 kts | 121° |
| 2026-05-01 07:40 | 31.96918 | 34.87998 | 7988 ft | 280 kts | 99° |
| 2026-05-01 07:41 | 31.96713 | 34.90353 | 8228 ft | 291 kts | 95° |
| 2026-05-01 07:41 | 31.96589 | 34.92722 | 8676 ft | 293 kts | 94° |
| 2026-05-01 07:41 | 31.96341 | 34.97522 | 9525 ft | 297 kts | 94° |
| 2026-05-01 07:42 | 31.96211 | 34.99950 | 9932 ft | 300 kts | 95° |
| 2026-05-01 07:42 | 31.96079 | 35.02418 | 10164 ft | 310 kts | 95° |
| 2026-05-01 07:42 | 31.95937 | 35.05040 | 10232 ft | 327 kts | 94° |
| 2026-05-01 07:42 | 31.95787 | 35.07793 | 10324 ft | 343 kts | 94° |
| 2026-05-01 07:43 | 31.95631 | 35.10679 | 10409 ft | 359 kts | 94° |
| 2026-05-01 07:43 | 31.95466 | 35.13685 | 10510 ft | 374 kts | 94° |
| 2026-05-01 07:43 | 31.95122 | 35.19955 | 11255 ft | 388 kts | 94° |
| 2026-05-01 07:44 | 31.94761 | 35.26474 | 12289 ft | 396 kts | 94° |
| 2026-05-01 07:44 | 31.94390 | 35.33113 | 13249 ft | 404 kts | 94° |
| 2026-05-01 07:45 | 31.94201 | 35.36466 | 13714 ft | 408 kts | 94° |
| 2026-05-01 07:45 | 31.94008 | 35.39863 | 14189 ft | 412 kts | 94° |
| 2026-05-01 07:45 | 31.93812 | 35.43322 | 14692 ft | 416 kts | 94° |
| 2026-05-01 07:45 | 31.93613 | 35.46805 | 15194 ft | 420 kts | 94° |
| 2026-05-01 07:46 | 31.93413 | 35.50283 | 15767 ft | 423 kts | 94° |
| 2026-05-01 07:46 | 31.93232 | 35.53759 | 16324 ft | 427 kts | 92° |
| 2026-05-01 07:46 | 31.92303 | 35.60732 | 17349 ft | 432 kts | 110° |
| 2026-05-01 07:47 | 31.91095 | 35.63962 | 17849 ft | 434 kts | 121° |
| 2026-05-01 07:47 | 31.89412 | 35.66906 | 18340 ft | 435 kts | 132° |
| 2026-05-01 07:47 | 31.87283 | 35.69489 | 18804 ft | 435 kts | 142° |
| 2026-05-01 07:47 | 31.84939 | 35.71681 | 19300 ft | 437 kts | 145° |
| 2026-05-01 07:48 | 31.80160 | 35.76221 | 20370 ft | 443 kts | 143° |
| 2026-05-01 07:48 | 31.77772 | 35.78598 | 20804 ft | 447 kts | 143° |
| 2026-05-01 07:48 | 31.75388 | 35.81023 | 21290 ft | 451 kts | 142° |
| 2026-05-01 07:49 | 31.72990 | 35.83495 | 21794 ft | 454 kts | 142° |
| 2026-05-01 07:49 | 31.68189 | 35.88506 | 22594 ft | 463 kts | 142° |
| 2026-05-01 07:49 | 31.65703 | 35.91120 | 23092 ft | 465 kts | 142° |
| 2026-05-01 07:50 | 31.63199 | 35.93761 | 23573 ft | 468 kts | 142° |
| 2026-05-01 07:50 | 31.58137 | 35.99110 | 24412 ft | 475 kts | 142° |
| 2026-05-01 07:50 | 31.55583 | 36.01812 | 24824 ft | 479 kts | 142° |
| 2026-05-01 07:51 | 31.52996 | 36.04548 | 25275 ft | 481 kts | 142° |
| 2026-05-01 07:51 | 31.50430 | 36.07263 | 25635 ft | 484 kts | 142° |
| 2026-05-01 07:51 | 31.47820 | 36.10021 | 25997 ft | 488 kts | 142° |
| 2026-05-01 07:52 | 31.42551 | 36.15587 | 26710 ft | 493 kts | 142° |
| 2026-05-01 07:52 | 31.39867 | 36.18420 | 27066 ft | 497 kts | 142° |
| 2026-05-01 07:52 | 31.37215 | 36.21217 | 27432 ft | 499 kts | 142° |
| 2026-05-01 07:53 | 31.31646 | 36.26682 | 28082 ft | 498 kts | 152° |
| 2026-05-01 07:53 | 31.28551 | 36.28688 | 28326 ft | 494 kts | 161° |
| 2026-05-01 07:53 | 31.25183 | 36.30123 | 28623 ft | 489 kts | 170° |
| 2026-05-01 07:53 | 31.21766 | 36.30910 | 28960 ft | 483 kts | 179° |
| 2026-05-01 07:54 | 31.14858 | 36.31447 | 29787 ft | 479 kts | 182° |
| 2026-05-01 07:55 | 31.04542 | 36.32095 | 31190 ft | 472 kts | 183° |
| 2026-05-01 07:55 | 30.97750 | 36.32512 | 31917 ft | 471 kts | 183° |
| 2026-05-01 07:56 | 30.87737 | 36.33123 | 33079 ft | 466 kts | 183° |
| 2026-05-01 07:56 | 30.81116 | 36.33524 | 33811 ft | 463 kts | 183° |
| 2026-05-01 07:57 | 30.77827 | 36.33723 | 34096 ft | 462 kts | 183° |
| 2026-05-01 07:57 | 30.71228 | 36.34120 | 34532 ft | 462 kts | 184° |
| 2026-05-01 07:58 | 30.64638 | 36.34517 | 34962 ft | 462 kts | 184° |
| 2026-05-01 07:59 | 30.51389 | 36.35313 | 35053 ft | 464 kts | 184° |
| 2026-05-01 08:00 | 30.31432 | 36.36508 | 35047 ft | 462 kts | 184° |
| 2026-05-01 08:01 | 30.18146 | 36.37301 | 35037 ft | 462 kts | 184° |
| 2026-05-01 08:02 | 30.08120 | 36.37897 | 35054 ft | 465 kts | 184° |
| 2026-05-01 08:03 | 29.98080 | 36.38495 | 35031 ft | 462 kts | 184° |
| 2026-05-01 08:03 | 29.87983 | 36.39094 | 35048 ft | 460 kts | 184° |
| 2026-05-01 08:04 | 29.81335 | 36.39488 | 35206 ft | 460 kts | 184° |
| 2026-05-01 08:04 | 29.74635 | 36.39883 | 35033 ft | 461 kts | 184° |
| 2026-05-01 08:05 | 29.64653 | 36.40472 | 35037 ft | 462 kts | 184° |
| 2026-05-01 08:06 | 29.54705 | 36.41059 | 35041 ft | 461 kts | 184° |
| 2026-05-01 08:07 | 29.41445 | 36.42120 | 35043 ft | 467 kts | 178° |
| 2026-05-01 08:08 | 29.31519 | 36.43928 | 35031 ft | 468 kts | 177° |
| 2026-05-01 08:09 | 29.18319 | 36.46325 | 35027 ft | 467 kts | 178° |
| 2026-05-01 08:09 | 29.11716 | 36.47519 | 35012 ft | 468 kts | 177° |
| 2026-05-01 08:10 | 28.98761 | 36.49860 | 35028 ft | 468 kts | 177° |
| 2026-05-01 08:11 | 28.85648 | 36.52224 | 35034 ft | 469 kts | 177° |
| 2026-05-01 08:12 | 28.75769 | 36.54002 | 35037 ft | 467 kts | 178° |
| 2026-05-01 08:13 | 28.65998 | 36.55756 | 35043 ft | 468 kts | 178° |
| 2026-05-01 08:13 | 28.56228 | 36.57505 | 35003 ft | 468 kts | 178° |
| 2026-05-01 08:14 | 28.49785 | 36.58655 | 35007 ft | 465 kts | 178° |
| 2026-05-01 08:14 | 28.43307 | 36.59808 | 34970 ft | 468 kts | 178° |
| 2026-05-01 08:15 | 28.33512 | 36.60859 | 34982 ft | 455 kts | 189° |
| 2026-05-01 08:16 | 28.27070 | 36.60496 | 34974 ft | 454 kts | 189° |
| 2026-05-01 08:16 | 28.20587 | 36.60124 | 34984 ft | 453 kts | 189° |
| 2026-05-01 08:17 | 28.14160 | 36.59755 | 34976 ft | 456 kts | 189° |
| 2026-05-01 08:17 | 28.07682 | 36.59388 | 35069 ft | 453 kts | 190° |
| 2026-05-01 08:18 | 28.01168 | 36.59016 | 35080 ft | 455 kts | 190° |
| 2026-05-01 08:19 | 27.88210 | 36.58283 | 35113 ft | 453 kts | 190° |
| 2026-05-01 08:19 | 27.81688 | 36.57912 | 35119 ft | 455 kts | 190° |
| 2026-05-01 08:20 | 27.75193 | 36.57547 | 35118 ft | 454 kts | 190° |
| 2026-05-01 08:20 | 27.68631 | 36.57175 | 35129 ft | 455 kts | 190° |
| 2026-05-01 08:21 | 27.62128 | 36.56810 | 35103 ft | 454 kts | 190° |
| 2026-05-01 08:21 | 27.55616 | 36.56443 | 35071 ft | 456 kts | 190° |
| 2026-05-01 08:22 | 27.49073 | 36.56075 | 35056 ft | 455 kts | 190° |
| 2026-05-01 08:22 | 27.42521 | 36.55708 | 35059 ft | 456 kts | 190° |
| 2026-05-01 08:23 | 27.35981 | 36.55341 | 35037 ft | 455 kts | 190° |
| 2026-05-01 08:23 | 27.29453 | 36.54975 | 35016 ft | 455 kts | 190° |
| 2026-05-01 08:24 | 27.22925 | 36.54609 | 35029 ft | 456 kts | 190° |
| 2026-05-01 08:24 | 27.16375 | 36.54244 | 35005 ft | 455 kts | 190° |
| 2026-05-01 08:25 | 27.09848 | 36.53880 | 34973 ft | 455 kts | 190° |
| 2026-05-01 08:25 | 27.03362 | 36.53520 | 34967 ft | 455 kts | 190° |
| 2026-05-01 08:26 | 26.96825 | 36.53157 | 34967 ft | 455 kts | 190° |
| 2026-05-01 08:26 | 26.90210 | 36.52790 | 34950 ft | 456 kts | 190° |
| 2026-05-01 08:27 | 26.83763 | 36.52433 | 34943 ft | 456 kts | 190° |
| 2026-05-01 08:27 | 26.77283 | 36.52075 | 34947 ft | 456 kts | 190° |
| 2026-05-01 08:28 | 26.70785 | 36.51716 | 34924 ft | 455 kts | 190° |
| 2026-05-01 08:28 | 26.64337 | 36.51361 | 34918 ft | 455 kts | 191° |
| 2026-05-01 08:29 | 26.57876 | 36.51004 | 34933 ft | 456 kts | 191° |
| 2026-05-01 08:29 | 26.51379 | 36.50647 | 34934 ft | 455 kts | 190° |
| 2026-05-01 08:30 | 26.44900 | 36.50290 | 34922 ft | 456 kts | 191° |
| 2026-05-01 08:30 | 26.38390 | 36.49931 | 34919 ft | 458 kts | 190° |
| 2026-05-01 08:31 | 26.31893 | 36.49576 | 34928 ft | 456 kts | 190° |
| 2026-05-01 08:31 | 26.25262 | 36.50003 | 34910 ft | 472 kts | 175° |
| 2026-05-01 08:31 | 26.21962 | 36.51123 | 34927 ft | 484 kts | 165° |
| 2026-05-01 08:32 | 26.18838 | 36.52829 | 34935 ft | 496 kts | 156° |
| 2026-05-01 08:32 | 26.13361 | 36.57910 | 34935 ft | 513 kts | 136° |
| 2026-05-01 08:32 | 26.11157 | 36.61270 | 34902 ft | 523 kts | 125° |
| 2026-05-01 08:33 | 26.09416 | 36.64896 | 34916 ft | 529 kts | 121° |
| 2026-05-01 08:33 | 26.05995 | 36.72358 | 34888 ft | 526 kts | 122° |
| 2026-05-01 08:34 | 26.02469 | 36.79798 | 34912 ft | 528 kts | 123° |
| 2026-05-01 08:34 | 25.98881 | 36.87213 | 34897 ft | 528 kts | 123° |
| 2026-05-01 08:35 | 25.95262 | 36.94605 | 34899 ft | 527 kts | 123° |
| 2026-05-01 08:35 | 25.91653 | 37.01922 | 34950 ft | 526 kts | 124° |
| 2026-05-01 08:36 | 25.88019 | 37.09253 | 34949 ft | 526 kts | 124° |
| 2026-05-01 08:36 | 25.84370 | 37.16591 | 34941 ft | 524 kts | 124° |
| 2026-05-01 08:37 | 25.80222 | 37.23512 | 34928 ft | 514 kts | 138° |
| 2026-05-01 08:37 | 25.74801 | 37.28742 | 34990 ft | 501 kts | 152° |
| 2026-05-01 08:38 | 25.68883 | 37.33257 | 34955 ft | 498 kts | 153° |
| 2026-05-01 08:38 | 25.62982 | 37.37722 | 34960 ft | 499 kts | 153° |
| 2026-05-01 08:39 | 25.57082 | 37.42176 | 34957 ft | 499 kts | 153° |
| 2026-05-01 08:39 | 25.51209 | 37.46601 | 34958 ft | 499 kts | 153° |
| 2026-05-01 08:40 | 25.42314 | 37.53290 | 34992 ft | 500 kts | 153° |
| 2026-05-01 08:40 | 25.36430 | 37.57709 | 34975 ft | 497 kts | 153° |
| 2026-05-01 08:41 | 25.30508 | 37.62146 | 34993 ft | 501 kts | 153° |
| 2026-05-01 08:41 | 25.24573 | 37.66592 | 34987 ft | 499 kts | 154° |
| 2026-05-01 08:42 | 25.18643 | 37.71028 | 35029 ft | 501 kts | 154° |
| 2026-05-01 08:42 | 25.12709 | 37.75471 | 35010 ft | 501 kts | 154° |
| 2026-05-01 08:43 | 25.06759 | 37.79920 | 35076 ft | 503 kts | 154° |
| 2026-05-01 08:43 | 25.00795 | 37.84376 | 35057 ft | 498 kts | 154° |
| 2026-05-01 08:44 | 24.94884 | 37.88785 | 35048 ft | 501 kts | 154° |
| 2026-05-01 08:44 | 24.88902 | 37.93240 | 35045 ft | 503 kts | 154° |
| 2026-05-01 08:45 | 24.82949 | 37.97673 | 35030 ft | 501 kts | 154° |
| 2026-05-01 08:45 | 24.77017 | 38.02081 | 35030 ft | 503 kts | 154° |
| 2026-05-01 08:46 | 24.71021 | 38.06533 | 34997 ft | 503 kts | 154° |
| 2026-05-01 08:46 | 24.65058 | 38.10957 | 35026 ft | 500 kts | 154° |
| 2026-05-01 08:47 | 24.59080 | 38.15383 | 35060 ft | 502 kts | 154° |
| 2026-05-01 08:47 | 24.53141 | 38.19777 | 35074 ft | 502 kts | 154° |
| 2026-05-01 08:48 | 24.47223 | 38.24150 | 35080 ft | 503 kts | 154° |
| 2026-05-01 08:48 | 24.41246 | 38.28563 | 35021 ft | 502 kts | 154° |
| 2026-05-01 08:49 | 24.35325 | 38.32927 | 34961 ft | 502 kts | 153° |
| 2026-05-01 08:49 | 24.29337 | 38.37336 | 34932 ft | 503 kts | 153° |
| 2026-05-01 08:50 | 24.23401 | 38.41703 | 34932 ft | 503 kts | 153° |
| 2026-05-01 08:50 | 24.17422 | 38.46091 | 34963 ft | 502 kts | 154° |
| 2026-05-01 08:51 | 24.11486 | 38.50440 | 34927 ft | 501 kts | 154° |
| 2026-05-01 08:51 | 24.05560 | 38.54778 | 34924 ft | 501 kts | 153° |
| 2026-05-01 08:52 | 23.99626 | 38.59114 | 34926 ft | 503 kts | 153° |
| 2026-05-01 08:52 | 23.93636 | 38.63490 | 34922 ft | 502 kts | 153° |
| 2026-05-01 08:53 | 23.87657 | 38.67851 | 34943 ft | 502 kts | 154° |
| 2026-05-01 08:53 | 23.81697 | 38.72195 | 34879 ft | 501 kts | 154° |
| 2026-05-01 08:54 | 23.75743 | 38.76516 | 34919 ft | 500 kts | 156° |
| 2026-05-01 08:54 | 23.69338 | 38.79655 | 34928 ft | 481 kts | 171° |
| 2026-05-01 08:55 | 23.62716 | 38.81889 | 34947 ft | 484 kts | 171° |
| 2026-05-01 08:55 | 23.56114 | 38.84102 | 34942 ft | 483 kts | 171° |
| 2026-05-01 08:56 | 23.49517 | 38.86310 | 34972 ft | 484 kts | 171° |
| 2026-05-01 08:56 | 23.42917 | 38.88518 | 34936 ft | 482 kts | 171° |
| 2026-05-01 08:57 | 23.36315 | 38.90723 | 34946 ft | 484 kts | 171° |
| 2026-05-01 08:57 | 23.29683 | 38.92937 | 34944 ft | 483 kts | 171° |
| 2026-05-01 08:58 | 23.23080 | 38.95139 | 34921 ft | 485 kts | 171° |
| 2026-05-01 08:58 | 23.16455 | 38.97345 | 34924 ft | 485 kts | 171° |
| 2026-05-01 08:59 | 23.09873 | 38.99536 | 34929 ft | 484 kts | 171° |
| 2026-05-01 08:59 | 23.03222 | 39.01746 | 34936 ft | 486 kts | 171° |
| 2026-05-01 09:00 | 22.96595 | 39.03948 | 34925 ft | 483 kts | 171° |
| 2026-05-01 09:00 | 22.90038 | 39.06122 | 34949 ft | 485 kts | 171° |
| 2026-05-01 09:01 | 22.83389 | 39.08326 | 34915 ft | 483 kts | 171° |
| 2026-05-01 09:01 | 22.76793 | 39.09744 | 34915 ft | 466 kts | 185° |
| 2026-05-01 09:02 | 22.70178 | 39.09939 | 34926 ft | 465 kts | 186° |
| 2026-05-01 09:02 | 22.63536 | 39.10098 | 34909 ft | 464 kts | 186° |
| 2026-05-01 09:03 | 22.56923 | 39.10256 | 34927 ft | 464 kts | 187° |
| 2026-05-01 09:03 | 22.50290 | 39.10416 | 34910 ft | 463 kts | 186° |
| 2026-05-01 09:04 | 22.43669 | 39.10575 | 34922 ft | 465 kts | 186° |
| 2026-05-01 09:04 | 22.37010 | 39.10735 | 34926 ft | 465 kts | 186° |
| 2026-05-01 09:05 | 22.30403 | 39.10894 | 34937 ft | 463 kts | 186° |
| 2026-05-01 09:05 | 22.23780 | 39.11052 | 34924 ft | 466 kts | 186° |
| 2026-05-01 09:06 | 22.17210 | 39.11211 | 34923 ft | 463 kts | 186° |
| 2026-05-01 09:06 | 22.10618 | 39.11369 | 34936 ft | 465 kts | 186° |
| 2026-05-01 09:07 | 22.04037 | 39.11527 | 34934 ft | 463 kts | 186° |
| 2026-05-01 09:07 | 21.97559 | 39.11681 | 34909 ft | 466 kts | 186° |
| 2026-05-01 09:08 | 21.91046 | 39.11837 | 34919 ft | 467 kts | 186° |
| 2026-05-01 09:08 | 21.84550 | 39.11993 | 34923 ft | 465 kts | 186° |
| 2026-05-01 09:09 | 21.78017 | 39.12149 | 34922 ft | 466 kts | 186° |
| 2026-05-01 09:09 | 21.71501 | 39.12304 | 34921 ft | 467 kts | 186° |
| 2026-05-01 09:10 | 21.64934 | 39.12209 | 34919 ft | 463 kts | 189° |
| 2026-05-01 09:10 | 21.58382 | 39.12013 | 34921 ft | 463 kts | 188° |
| 2026-05-01 09:11 | 21.51713 | 39.11828 | 34924 ft | 464 kts | 188° |
| 2026-05-01 09:11 | 21.45068 | 39.11651 | 34920 ft | 464 kts | 188° |
| 2026-05-01 09:12 | 21.38418 | 39.11476 | 34907 ft | 466 kts | 188° |
| 2026-05-01 09:12 | 21.31767 | 39.11306 | 34900 ft | 464 kts | 188° |
| 2026-05-01 09:13 | 21.25064 | 39.11134 | 34913 ft | 464 kts | 188° |
| 2026-05-01 09:13 | 21.18363 | 39.10962 | 34910 ft | 466 kts | 188° |
| 2026-05-01 09:14 | 21.11649 | 39.10792 | 34909 ft | 464 kts | 188° |
| 2026-05-01 09:14 | 21.04860 | 39.10619 | 34909 ft | 466 kts | 188° |
| 2026-05-01 09:15 | 20.98060 | 39.10446 | 34910 ft | 468 kts | 188° |
| 2026-05-01 09:15 | 20.91298 | 39.10276 | 34910 ft | 467 kts | 188° |
| 2026-05-01 09:16 | 20.84545 | 39.10105 | 34911 ft | 466 kts | 188° |
| 2026-05-01 09:17 | 20.74301 | 39.09845 | 34912 ft | 468 kts | 188° |
| 2026-05-01 09:17 | 20.64285 | 39.09593 | 34911 ft | 466 kts | 188° |
| 2026-05-01 09:18 | 20.54239 | 39.09340 | 34910 ft | 467 kts | 187° |
| 2026-05-01 09:19 | 20.44214 | 39.09087 | 34902 ft | 467 kts | 187° |
| 2026-05-01 09:20 | 20.34063 | 39.08832 | 34890 ft | 468 kts | 187° |
| 2026-05-01 09:21 | 20.20476 | 39.08492 | 34887 ft | 467 kts | 187° |
| 2026-05-01 09:21 | 20.10287 | 39.08236 | 34886 ft | 469 kts | 187° |
| 2026-05-01 09:22 | 19.96676 | 39.07896 | 34884 ft | 469 kts | 187° |
| 2026-05-01 09:23 | 19.86407 | 39.07639 | 34899 ft | 470 kts | 187° |
| 2026-05-01 09:24 | 19.76263 | 39.07386 | 34897 ft | 471 kts | 187° |
| 2026-05-01 09:25 | 19.62778 | 39.07052 | 34907 ft | 469 kts | 187° |
| 2026-05-01 09:26 | 19.52551 | 39.06796 | 34896 ft | 471 kts | 187° |
| 2026-05-01 09:26 | 19.42262 | 39.06541 | 34903 ft | 471 kts | 186° |
| 2026-05-01 09:27 | 19.32035 | 39.06287 | 34904 ft | 473 kts | 186° |
| 2026-05-01 09:28 | 19.25187 | 39.06118 | 34897 ft | 472 kts | 186° |
| 2026-05-01 09:28 | 19.18310 | 39.05948 | 34908 ft | 472 kts | 186° |
| 2026-05-01 09:29 | 19.08102 | 39.05598 | 34897 ft | 472 kts | 188° |
| 2026-05-01 09:30 | 18.97931 | 39.05007 | 34893 ft | 472 kts | 188° |
| 2026-05-01 09:30 | 18.87677 | 39.04426 | 34888 ft | 473 kts | 187° |
| 2026-05-01 09:31 | 18.80843 | 39.04044 | 34887 ft | 473 kts | 187° |
| 2026-05-01 09:32 | 18.70546 | 39.03471 | 34887 ft | 472 kts | 187° |
| 2026-05-01 09:32 | 18.60276 | 39.02901 | 34890 ft | 472 kts | 187° |
| 2026-05-01 09:33 | 18.53441 | 39.02522 | 34889 ft | 472 kts | 187° |
| 2026-05-01 09:34 | 18.43178 | 39.01954 | 34894 ft | 472 kts | 187° |
| 2026-05-01 09:34 | 18.32890 | 39.01386 | 34901 ft | 472 kts | 187° |
| 2026-05-01 09:35 | 18.22598 | 39.00818 | 34906 ft | 473 kts | 187° |
| 2026-05-01 09:36 | 18.15735 | 39.00443 | 34907 ft | 472 kts | 186° |
| 2026-05-01 09:36 | 18.08865 | 39.00194 | 34904 ft | 474 kts | 185° |
| 2026-05-01 09:37 | 18.01992 | 38.99955 | 34901 ft | 473 kts | 186° |
| 2026-05-01 09:37 | 17.91717 | 38.99591 | 34912 ft | 474 kts | 185° |
| 2026-05-01 09:38 | 17.81465 | 38.99224 | 34891 ft | 473 kts | 185° |
| 2026-05-01 09:39 | 17.71174 | 38.98855 | 34895 ft | 474 kts | 185° |
| 2026-05-01 09:39 | 17.64308 | 38.98609 | 34898 ft | 474 kts | 185° |
| 2026-05-01 09:40 | 17.54081 | 38.98242 | 34891 ft | 475 kts | 185° |
| 2026-05-01 09:41 | 17.47272 | 38.97998 | 34893 ft | 476 kts | 185° |
| 2026-05-01 09:41 | 17.36989 | 38.97626 | 34883 ft | 475 kts | 185° |
| 2026-05-01 09:42 | 17.30126 | 38.97375 | 34897 ft | 474 kts | 185° |
| 2026-05-01 09:43 | 17.16439 | 38.96875 | 34896 ft | 475 kts | 185° |
| 2026-05-01 09:43 | 17.09631 | 38.96626 | 34890 ft | 478 kts | 185° |
| 2026-05-01 09:44 | 16.99360 | 38.96252 | 34886 ft | 476 kts | 185° |
| 2026-05-01 09:45 | 16.92483 | 38.96002 | 34890 ft | 475 kts | 185° |
| 2026-05-01 09:45 | 16.82253 | 38.95630 | 34907 ft | 475 kts | 185° |
| 2026-05-01 09:46 | 16.75484 | 38.95384 | 34917 ft | 476 kts | 185° |
| 2026-05-01 09:46 | 16.68646 | 38.95135 | 34916 ft | 477 kts | 185° |
| 2026-05-01 09:47 | 16.61843 | 38.94888 | 34938 ft | 476 kts | 184° |
| 2026-05-01 09:47 | 16.55059 | 38.94643 | 34928 ft | 475 kts | 184° |
| 2026-05-01 09:48 | 16.48279 | 38.94397 | 34930 ft | 474 kts | 184° |
| 2026-05-01 09:48 | 16.41519 | 38.94152 | 34934 ft | 474 kts | 184° |
| 2026-05-01 09:49 | 16.34736 | 38.93906 | 34950 ft | 475 kts | 184° |
| 2026-05-01 09:49 | 16.27925 | 38.93660 | 34948 ft | 476 kts | 184° |
| 2026-05-01 09:50 | 16.21147 | 38.93415 | 34947 ft | 475 kts | 184° |
| 2026-05-01 09:50 | 16.14364 | 38.93170 | 34966 ft | 475 kts | 184° |
| 2026-05-01 09:51 | 16.07595 | 38.92926 | 34986 ft | 475 kts | 184° |
| 2026-05-01 09:51 | 16.00821 | 38.92681 | 34990 ft | 473 kts | 184° |
| 2026-05-01 09:52 | 15.94092 | 38.92439 | 34997 ft | 475 kts | 184° |
| 2026-05-01 09:52 | 15.87326 | 38.92195 | 35003 ft | 475 kts | 184° |
| 2026-05-01 09:53 | 15.80552 | 38.91951 | 35019 ft | 476 kts | 184° |
| 2026-05-01 09:53 | 15.73799 | 38.91708 | 35050 ft | 474 kts | 184° |
| 2026-05-01 09:54 | 15.67125 | 38.91468 | 35081 ft | 476 kts | 184° |
| 2026-05-01 09:54 | 15.60388 | 38.91227 | 35162 ft | 474 kts | 184° |
| 2026-05-01 09:55 | 15.53701 | 38.90987 | 35208 ft | 475 kts | 184° |
| 2026-05-01 09:55 | 15.47026 | 38.90747 | 35267 ft | 475 kts | 184° |
| 2026-05-01 09:56 | 15.40391 | 38.90509 | 35276 ft | 475 kts | 184° |
| 2026-05-01 09:56 | 15.33655 | 38.90268 | 35286 ft | 475 kts | 184° |
| 2026-05-01 09:57 | 15.26919 | 38.90039 | 35328 ft | 474 kts | 182° |
| 2026-05-01 09:57 | 15.20167 | 38.90038 | 35327 ft | 476 kts | 182° |
| 2026-05-01 09:58 | 15.13403 | 38.90048 | 35343 ft | 475 kts | 182° |
| 2026-05-01 09:58 | 15.06647 | 38.90049 | 35352 ft | 474 kts | 182° |
| 2026-05-01 09:59 | 14.99917 | 38.90046 | 35357 ft | 476 kts | 182° |
| 2026-05-01 09:59 | 14.93135 | 38.90042 | 35348 ft | 475 kts | 182° |
| 2026-05-01 10:00 | 14.86332 | 38.90036 | 35349 ft | 475 kts | 182° |
| 2026-05-01 10:00 | 14.79609 | 38.90030 | 35342 ft | 474 kts | 182° |
| 2026-05-01 10:01 | 14.72900 | 38.90023 | 35329 ft | 476 kts | 182° |
| 2026-05-01 10:01 | 14.66101 | 38.90017 | 35327 ft | 475 kts | 182° |
| 2026-05-01 10:02 | 14.59331 | 38.90009 | 35316 ft | 476 kts | 182° |
| 2026-05-01 10:02 | 14.52561 | 38.90499 | 35295 ft | 479 kts | 169° |
| 2026-05-01 10:03 | 14.46196 | 38.93022 | 35303 ft | 484 kts | 151° |
| 2026-05-01 10:03 | 14.40542 | 38.97062 | 35334 ft | 486 kts | 145° |
| 2026-05-01 10:04 | 14.34941 | 39.01250 | 35353 ft | 485 kts | 145° |
| 2026-05-01 10:04 | 14.29352 | 39.05426 | 35382 ft | 486 kts | 145° |
| 2026-05-01 10:05 | 14.23774 | 39.09590 | 35398 ft | 485 kts | 145° |
| 2026-05-01 10:05 | 14.18136 | 39.13795 | 35391 ft | 486 kts | 145° |
| 2026-05-01 10:06 | 14.12532 | 39.17972 | 35379 ft | 485 kts | 145° |
| 2026-05-01 10:06 | 14.06907 | 39.22161 | 35347 ft | 485 kts | 145° |
| 2026-05-01 10:07 | 14.01276 | 39.26353 | 35317 ft | 485 kts | 145° |
| 2026-05-01 10:07 | 13.95662 | 39.30529 | 35322 ft | 485 kts | 145° |
| 2026-05-01 10:08 | 13.87265 | 39.36771 | 35316 ft | 486 kts | 145° |
| 2026-05-01 10:09 | 13.81686 | 39.40915 | 35322 ft | 485 kts | 145° |
| 2026-05-01 10:09 | 13.76071 | 39.45083 | 35311 ft | 486 kts | 145° |
| 2026-05-01 10:10 | 13.70520 | 39.49200 | 35290 ft | 484 kts | 145° |
| 2026-05-01 10:10 | 13.62122 | 39.55426 | 35305 ft | 485 kts | 145° |
| 2026-05-01 10:11 | 13.56560 | 39.59546 | 35306 ft | 486 kts | 145° |
| 2026-05-01 10:11 | 13.50891 | 39.63743 | 35307 ft | 486 kts | 145° |
| 2026-05-01 10:12 | 13.46245 | 39.67180 | 35290 ft | 485 kts | 145° |
| 2026-05-01 10:13 | 13.36830 | 39.74141 | 35267 ft | 486 kts | 145° |
| 2026-05-01 10:13 | 13.31174 | 39.78319 | 35243 ft | 486 kts | 145° |
| 2026-05-01 10:14 | 13.22689 | 39.84583 | 35202 ft | 487 kts | 146° |
| 2026-05-01 10:14 | 13.17080 | 39.88720 | 35187 ft | 485 kts | 145° |
| 2026-05-01 10:15 | 13.11450 | 39.92871 | 35164 ft | 485 kts | 146° |
| 2026-05-01 10:15 | 13.05812 | 39.97026 | 35163 ft | 486 kts | 145° |
| 2026-05-01 10:16 | 13.00166 | 40.01183 | 35148 ft | 487 kts | 145° |
| 2026-05-01 10:17 | 12.91702 | 40.07412 | 35112 ft | 487 kts | 145° |
| 2026-05-01 10:17 | 12.83206 | 40.13658 | 35090 ft | 485 kts | 145° |
| 2026-05-01 10:18 | 12.74690 | 40.19915 | 35020 ft | 486 kts | 146° |
| 2026-05-01 10:19 | 12.69021 | 40.24076 | 34982 ft | 487 kts | 145° |
| 2026-05-01 10:19 | 12.63331 | 40.28251 | 34965 ft | 487 kts | 145° |
| 2026-05-01 10:20 | 12.54815 | 40.34495 | 34970 ft | 486 kts | 145° |
| 2026-05-01 10:20 | 12.49180 | 40.38623 | 34981 ft | 486 kts | 145° |
| 2026-05-01 10:21 | 12.40211 | 40.44035 | 34980 ft | 486 kts | 154° |
| 2026-05-01 10:22 | 12.30825 | 40.48859 | 34999 ft | 486 kts | 154° |
| 2026-05-01 10:23 | 12.21471 | 40.53666 | 34988 ft | 487 kts | 154° |
| 2026-05-01 10:23 | 12.12092 | 40.58482 | 34977 ft | 486 kts | 154° |
| 2026-05-01 10:24 | 11.99511 | 40.64937 | 34986 ft | 486 kts | 154° |
| 2026-05-01 10:25 | 11.86937 | 40.71382 | 34977 ft | 487 kts | 154° |
| 2026-05-01 10:26 | 11.80654 | 40.74600 | 34984 ft | 486 kts | 154° |
| 2026-05-01 10:27 | 11.68107 | 40.81021 | 34982 ft | 487 kts | 154° |
| 2026-05-01 10:28 | 11.58709 | 40.85827 | 34982 ft | 488 kts | 154° |
| 2026-05-01 10:28 | 11.49293 | 40.90637 | 34968 ft | 487 kts | 154° |
| 2026-05-01 10:29 | 11.39932 | 40.95417 | 34954 ft | 487 kts | 154° |
| 2026-05-01 10:30 | 11.27391 | 41.01814 | 34944 ft | 488 kts | 154° |
| 2026-05-01 10:31 | 11.14919 | 41.08170 | 34948 ft | 488 kts | 154° |
| 2026-05-01 10:32 | 11.05519 | 41.12956 | 34958 ft | 487 kts | 154° |
| 2026-05-01 10:33 | 10.93071 | 41.19288 | 34940 ft | 487 kts | 154° |
| 2026-05-01 10:34 | 10.83617 | 41.24094 | 34919 ft | 488 kts | 154° |
| 2026-05-01 10:34 | 10.77336 | 41.27285 | 34920 ft | 486 kts | 154° |
| 2026-05-01 10:35 | 10.67947 | 41.32052 | 34930 ft | 486 kts | 154° |
| 2026-05-01 10:35 | 10.61674 | 41.35235 | 34946 ft | 485 kts | 154° |
| 2026-05-01 10:36 | 10.52223 | 41.40028 | 34970 ft | 486 kts | 154° |
| 2026-05-01 10:37 | 10.45966 | 41.43200 | 34990 ft | 487 kts | 154° |
| 2026-05-01 10:37 | 10.36517 | 41.47986 | 34992 ft | 484 kts | 154° |
| 2026-05-01 10:38 | 10.30307 | 41.51130 | 34989 ft | 485 kts | 154° |
| 2026-05-01 10:38 | 10.24003 | 41.54320 | 34985 ft | 486 kts | 154° |
| 2026-05-01 10:39 | 10.17730 | 41.57493 | 34979 ft | 484 kts | 154° |
| 2026-05-01 10:39 | 10.11479 | 41.60654 | 34983 ft | 485 kts | 154° |
| 2026-05-01 10:40 | 10.05194 | 41.63830 | 34987 ft | 485 kts | 154° |
| 2026-05-01 10:40 | 9.98982 | 41.66968 | 34996 ft | 484 kts | 154° |
| 2026-05-01 10:41 | 9.92801 | 41.70089 | 35017 ft | 484 kts | 154° |
| 2026-05-01 10:42 | 9.83489 | 41.74789 | 35033 ft | 485 kts | 154° |
| 2026-05-01 10:42 | 9.77318 | 41.77901 | 35048 ft | 485 kts | 154° |
| 2026-05-01 10:43 | 9.71488 | 41.81571 | 35067 ft | 485 kts | 139° |
| 2026-05-01 10:43 | 9.66970 | 41.86852 | 35099 ft | 486 kts | 121° |
| 2026-05-01 10:44 | 9.64262 | 41.93250 | 35140 ft | 483 kts | 103° |
| 2026-05-01 10:44 | 9.63432 | 42.00131 | 35170 ft | 483 kts | 92° |
| 2026-05-01 10:45 | 9.63047 | 42.07057 | 35176 ft | 483 kts | 93° |
| 2026-05-01 10:45 | 9.62657 | 42.13958 | 35195 ft | 483 kts | 93° |
| 2026-05-01 10:46 | 9.62260 | 42.20893 | 35209 ft | 483 kts | 93° |
| 2026-05-01 10:46 | 9.61858 | 42.27856 | 35221 ft | 484 kts | 93° |
| 2026-05-01 10:47 | 9.61451 | 42.34843 | 35229 ft | 482 kts | 93° |
| 2026-05-01 10:47 | 9.61045 | 42.41787 | 35233 ft | 482 kts | 93° |
| 2026-05-01 10:48 | 9.60637 | 42.48739 | 35236 ft | 484 kts | 93° |
| 2026-05-01 10:48 | 9.60228 | 42.55679 | 35255 ft | 481 kts | 93° |
| 2026-05-01 10:49 | 9.59820 | 42.62587 | 35254 ft | 484 kts | 93° |
| 2026-05-01 10:49 | 9.59407 | 42.69548 | 35250 ft | 481 kts | 93° |
| 2026-05-01 10:50 | 9.58995 | 42.76463 | 35240 ft | 484 kts | 93° |
| 2026-05-01 10:50 | 9.58578 | 42.83444 | 35243 ft | 482 kts | 93° |
| 2026-05-01 10:51 | 9.58160 | 42.90408 | 35249 ft | 483 kts | 93° |
| 2026-05-01 10:51 | 9.57747 | 42.97287 | 35249 ft | 473 kts | 93° |
| 2026-05-01 10:52 | 9.57333 | 43.04143 | 35252 ft | 482 kts | 93° |
| 2026-05-01 10:52 | 9.56912 | 43.11105 | 35255 ft | 484 kts | 93° |
| 2026-05-01 10:53 | 9.56488 | 43.18072 | 35235 ft | 481 kts | 93° |
| 2026-05-01 10:53 | 9.56068 | 43.24956 | 35243 ft | 480 kts | 93° |
| 2026-05-01 10:54 | 9.55647 | 43.31852 | 35216 ft | 479 kts | 93° |
| 2026-05-01 10:54 | 9.55223 | 43.38757 | 35221 ft | 482 kts | 93° |
| 2026-05-01 10:55 | 9.54878 | 43.45652 | 35209 ft | 480 kts | 92° |
| 2026-05-01 10:55 | 9.54608 | 43.52542 | 35198 ft | 480 kts | 91° |
| 2026-05-01 10:56 | 9.54332 | 43.59383 | 35194 ft | 476 kts | 91° |
| 2026-05-01 10:56 | 9.54051 | 43.66265 | 35198 ft | 481 kts | 92° |
| 2026-05-01 10:57 | 9.53767 | 43.73150 | 35177 ft | 478 kts | 92° |
| 2026-05-01 10:57 | 9.53482 | 43.79999 | 35183 ft | 477 kts | 91° |
| 2026-05-01 10:58 | 9.53199 | 43.86755 | 35164 ft | 477 kts | 92° |
| 2026-05-01 10:58 | 9.52911 | 43.93599 | 35171 ft | 478 kts | 92° |
| 2026-05-01 10:59 | 9.52624 | 44.00365 | 35171 ft | 476 kts | 92° |
| 2026-05-01 10:59 | 9.52334 | 44.07193 | 35157 ft | 478 kts | 91° |
| 2026-05-01 11:00 | 9.51849 | 44.14090 | 35145 ft | 479 kts | 95° |
| 2026-05-01 11:00 | 9.51149 | 44.20871 | 35145 ft | 476 kts | 95° |
| 2026-05-01 11:01 | 9.50460 | 44.27687 | 35136 ft | 475 kts | 95° |
| 2026-05-01 11:01 | 9.49783 | 44.34477 | 35130 ft | 478 kts | 95° |
| 2026-05-01 11:02 | 9.49106 | 44.41290 | 35124 ft | 470 kts | 95° |
| 2026-05-01 11:02 | 9.48436 | 44.48058 | 35115 ft | 471 kts | 95° |
| 2026-05-01 11:03 | 9.47771 | 44.54766 | 35114 ft | 467 kts | 95° |
| 2026-05-01 11:03 | 9.47100 | 44.61542 | 35106 ft | 471 kts | 95° |
| 2026-05-01 11:04 | 9.46423 | 44.68357 | 35111 ft | 469 kts | 95° |
| 2026-05-01 11:04 | 9.45757 | 44.75057 | 35111 ft | 470 kts | 96° |
| 2026-05-01 11:05 | 9.45085 | 44.81797 | 35113 ft | 469 kts | 96° |
| 2026-05-01 11:05 | 9.44418 | 44.88488 | 35109 ft | 469 kts | 96° |
| 2026-05-01 11:06 | 9.43744 | 44.95222 | 35101 ft | 469 kts | 96° |
| 2026-05-01 11:06 | 9.43073 | 45.01921 | 35102 ft | 468 kts | 96° |
| 2026-05-01 11:07 | 9.42062 | 45.11992 | 35093 ft | 468 kts | 96° |
| 2026-05-01 11:07 | 9.41387 | 45.18699 | 35090 ft | 468 kts | 96° |
| 2026-05-01 11:08 | 9.40712 | 45.25388 | 35093 ft | 467 kts | 96° |
| 2026-05-01 11:09 | 9.39693 | 45.35474 | 35086 ft | 467 kts | 96° |
| 2026-05-01 11:09 | 9.39016 | 45.42147 | 35086 ft | 467 kts | 96° |
| 2026-05-01 11:10 | 9.37996 | 45.52190 | 35079 ft | 467 kts | 96° |
| 2026-05-01 11:10 | 9.37316 | 45.58876 | 35079 ft | 466 kts | 96° |
| 2026-05-01 11:11 | 9.36632 | 45.65571 | 35069 ft | 466 kts | 96° |
| 2026-05-01 11:11 | 9.35948 | 45.72272 | 35066 ft | 468 kts | 96° |
| 2026-05-01 11:12 | 9.35256 | 45.79028 | 35062 ft | 465 kts | 96° |
| 2026-05-01 11:12 | 9.34574 | 45.85674 | 35058 ft | 466 kts | 96° |
| 2026-05-01 11:13 | 9.33886 | 45.92372 | 35048 ft | 466 kts | 96° |
| 2026-05-01 11:13 | 9.33201 | 45.99026 | 35038 ft | 465 kts | 96° |
| 2026-05-01 11:14 | 9.32517 | 46.05651 | 35020 ft | 465 kts | 96° |
| 2026-05-01 11:14 | 9.31826 | 46.12336 | 35016 ft | 467 kts | 96° |
| 2026-05-01 11:15 | 9.31135 | 46.19017 | 35001 ft | 466 kts | 96° |
| 2026-05-01 11:15 | 9.30443 | 46.25686 | 35003 ft | 466 kts | 96° |
| 2026-05-01 11:16 | 9.29747 | 46.32388 | 35002 ft | 467 kts | 96° |
| 2026-05-01 11:16 | 9.29042 | 46.39153 | 35007 ft | 469 kts | 96° |
| 2026-05-01 11:17 | 9.28344 | 46.45851 | 35001 ft | 467 kts | 96° |
| 2026-05-01 11:17 | 9.27638 | 46.52597 | 34996 ft | 469 kts | 96° |
| 2026-05-01 11:18 | 9.26937 | 46.59298 | 35001 ft | 467 kts | 96° |
| 2026-05-01 11:18 | 9.26239 | 46.65958 | 34991 ft | 470 kts | 96° |
| 2026-05-01 11:19 | 9.25528 | 46.72723 | 34978 ft | 469 kts | 96° |
| 2026-05-01 11:19 | 9.24818 | 46.79472 | 34955 ft | 470 kts | 96° |
| 2026-05-01 11:20 | 9.24103 | 46.86252 | 34969 ft | 471 kts | 96° |
| 2026-05-01 11:20 | 9.23392 | 46.92985 | 34959 ft | 470 kts | 96° |
| 2026-05-01 11:21 | 9.22674 | 46.99762 | 34950 ft | 470 kts | 96° |
| 2026-05-01 11:21 | 9.21954 | 47.06559 | 34964 ft | 470 kts | 96° |
| 2026-05-01 11:22 | 9.21236 | 47.13314 | 34960 ft | 472 kts | 96° |
| 2026-05-01 11:22 | 9.20513 | 47.20117 | 34965 ft | 471 kts | 96° |
| 2026-05-01 11:23 | 9.19790 | 47.26898 | 34955 ft | 469 kts | 96° |
| 2026-05-01 11:23 | 9.19068 | 47.33656 | 34975 ft | 471 kts | 96° |
| 2026-05-01 11:24 | 9.18964 | 47.40442 | 34979 ft | 470 kts | 89° |
| 2026-05-01 11:25 | 9.19166 | 47.50656 | 34984 ft | 469 kts | 89° |
| 2026-05-01 11:25 | 9.19357 | 47.60863 | 34996 ft | 470 kts | 89° |
| 2026-05-01 11:26 | 9.19542 | 47.71063 | 34981 ft | 468 kts | 89° |
| 2026-05-01 11:27 | 9.19643 | 47.76789 | 34990 ft | 470 kts | 89° |
| 2026-05-01 11:27 | 9.19782 | 47.84663 | 34984 ft | 469 kts | 89° |
| 2026-05-01 11:28 | 9.19901 | 47.91512 | 34993 ft | 468 kts | 89° |
| 2026-05-01 11:28 | 9.20017 | 47.98311 | 34995 ft | 467 kts | 89° |
| 2026-05-01 11:29 | 9.20190 | 48.08504 | 35000 ft | 469 kts | 89° |
| 2026-05-01 11:30 | 9.20359 | 48.18650 | 34991 ft | 468 kts | 89° |
| 2026-05-01 11:30 | 9.20469 | 48.25403 | 34989 ft | 465 kts | 89° |
| 2026-05-01 11:31 | 9.20579 | 48.32127 | 34986 ft | 465 kts | 89° |
| 2026-05-01 11:31 | 9.20685 | 48.38786 | 34987 ft | 466 kts | 89° |
| 2026-05-01 11:32 | 9.20793 | 48.45561 | 34989 ft | 465 kts | 89° |
| 2026-05-01 11:32 | 9.20898 | 48.52323 | 34999 ft | 465 kts | 89° |
| 2026-05-01 11:33 | 9.21002 | 48.59044 | 35003 ft | 464 kts | 89° |
| 2026-05-01 11:33 | 9.21106 | 48.65813 | 35018 ft | 463 kts | 89° |
| 2026-05-01 11:34 | 9.21208 | 48.72586 | 35022 ft | 465 kts | 89° |
| 2026-05-01 11:34 | 9.21308 | 48.79257 | 35031 ft | 463 kts | 89° |
| 2026-05-01 11:35 | 9.21407 | 48.86013 | 35026 ft | 464 kts | 89° |
| 2026-05-01 11:35 | 9.21506 | 48.92786 | 35013 ft | 463 kts | 89° |
| 2026-05-01 11:36 | 9.21601 | 48.99426 | 35009 ft | 463 kts | 89° |
| 2026-05-01 11:36 | 9.21696 | 49.06144 | 35000 ft | 463 kts | 89° |
| 2026-05-01 11:37 | 9.21791 | 49.12891 | 34994 ft | 462 kts | 89° |
| 2026-05-01 11:37 | 9.21884 | 49.19628 | 34980 ft | 463 kts | 89° |
| 2026-05-01 11:38 | 9.21975 | 49.26354 | 34954 ft | 461 kts | 89° |
| 2026-05-01 11:38 | 9.22065 | 49.33071 | 34945 ft | 463 kts | 89° |
| 2026-05-01 11:39 | 9.22155 | 49.39823 | 34956 ft | 461 kts | 89° |
| 2026-05-01 11:39 | 9.22242 | 49.46509 | 34923 ft | 461 kts | 89° |
| 2026-05-01 11:40 | 9.22329 | 49.53222 | 34922 ft | 462 kts | 89° |
| 2026-05-01 11:40 | 9.22414 | 49.59957 | 34918 ft | 462 kts | 89° |
| 2026-05-01 11:41 | 9.22498 | 49.66647 | 34918 ft | 461 kts | 90° |
| 2026-05-01 11:41 | 9.22578 | 49.73354 | 34902 ft | 460 kts | 89° |
| 2026-05-01 11:42 | 9.22658 | 49.80133 | 34897 ft | 462 kts | 90° |
| 2026-05-01 11:42 | 9.22736 | 49.86889 | 34896 ft | 461 kts | 89° |
| 2026-05-01 11:43 | 9.22813 | 49.93583 | 34893 ft | 462 kts | 90° |
| 2026-05-01 11:43 | 9.22888 | 50.00301 | 34886 ft | 458 kts | 89° |
| 2026-05-01 11:44 | 9.23000 | 50.10453 | 34897 ft | 462 kts | 89° |
| 2026-05-01 11:44 | 9.23072 | 50.17129 | 34862 ft | 460 kts | 90° |
| 2026-05-01 11:45 | 9.23143 | 50.23889 | 34860 ft | 460 kts | 90° |
| 2026-05-01 11:45 | 9.23212 | 50.30554 | 34861 ft | 463 kts | 89° |
| 2026-05-01 11:46 | 9.23281 | 50.37253 | 34858 ft | 461 kts | 89° |
| 2026-05-01 11:46 | 9.23349 | 50.44029 | 34842 ft | 462 kts | 89° |
| 2026-05-01 11:47 | 9.23416 | 50.50807 | 34829 ft | 462 kts | 89° |
| 2026-05-01 11:47 | 9.23481 | 50.57595 | 34820 ft | 461 kts | 89° |
| 2026-05-01 11:48 | 9.23545 | 50.64321 | 34817 ft | 464 kts | 90° |
| 2026-05-01 11:48 | 9.23608 | 50.71143 | 34811 ft | 463 kts | 90° |
| 2026-05-01 11:49 | 9.23670 | 50.77939 | 34804 ft | 462 kts | 90° |
| 2026-05-01 11:49 | 9.23730 | 50.84746 | 34791 ft | 463 kts | 90° |
| 2026-05-01 11:50 | 9.23790 | 50.91581 | 34800 ft | 460 kts | 89° |
| 2026-05-01 11:50 | 9.23847 | 50.98316 | 34804 ft | 462 kts | 89° |
| 2026-05-01 11:51 | 9.23903 | 51.05029 | 34803 ft | 461 kts | 89° |
| 2026-05-01 11:51 | 9.23958 | 51.11712 | 34794 ft | 463 kts | 90° |
| 2026-05-01 11:52 | 9.24012 | 51.18536 | 34788 ft | 462 kts | 90° |
| 2026-05-01 11:52 | 9.24065 | 51.25359 | 34798 ft | 462 kts | 90° |
| 2026-05-01 11:53 | 9.24116 | 51.32105 | 34810 ft | 461 kts | 90° |
| 2026-05-01 11:53 | 9.24166 | 51.38879 | 34815 ft | 463 kts | 90° |
| 2026-05-01 11:54 | 9.24216 | 51.45678 | 34816 ft | 462 kts | 90° |
| 2026-05-01 11:54 | 9.24263 | 51.52472 | 34812 ft | 462 kts | 90° |
| 2026-05-01 11:55 | 9.24309 | 51.59223 | 34820 ft | 464 kts | 90° |
| 2026-05-01 11:55 | 9.24354 | 51.66016 | 34817 ft | 463 kts | 90° |
| 2026-05-01 11:56 | 9.24398 | 51.72784 | 34820 ft | 463 kts | 90° |
| 2026-05-01 11:56 | 9.24441 | 51.79617 | 34828 ft | 463 kts | 90° |
| 2026-05-01 11:57 | 9.24476 | 51.85289 | 34821 ft | 461 kts | 90° |
| 2026-05-01 11:57 | 9.24522 | 51.93162 | 34822 ft | 463 kts | 90° |
| 2026-05-01 11:58 | 9.24561 | 51.99995 | 34829 ft | 463 kts | 90° |
| 2026-05-01 11:59 | 9.24617 | 52.10146 | 34831 ft | 462 kts | 90° |
| 2026-05-01 11:59 | 9.24652 | 52.16877 | 34821 ft | 462 kts | 90° |
| 2026-05-01 12:00 | 9.24703 | 52.27071 | 34821 ft | 461 kts | 90° |
| 2026-05-01 12:01 | 9.24751 | 52.37219 | 34816 ft | 462 kts | 90° |
| 2026-05-01 12:01 | 9.24782 | 52.44021 | 34813 ft | 462 kts | 90° |
| 2026-05-01 12:02 | 9.24811 | 52.50766 | 34817 ft | 461 kts | 90° |
| 2026-05-01 12:02 | 9.24839 | 52.57544 | 34825 ft | 462 kts | 90° |
| 2026-05-01 12:03 | 9.24865 | 52.64319 | 34839 ft | 463 kts | 90° |
| 2026-05-01 12:03 | 9.24891 | 52.71181 | 34843 ft | 463 kts | 90° |
| 2026-05-01 12:04 | 9.24915 | 52.77984 | 34839 ft | 463 kts | 90° |
| 2026-05-01 12:04 | 9.24938 | 52.84774 | 34856 ft | 463 kts | 90° |
| 2026-05-01 12:05 | 9.24959 | 52.91533 | 34847 ft | 463 kts | 90° |
| 2026-05-01 12:05 | 9.24986 | 53.00642 | 34843 ft | 463 kts | 90° |
| 2026-05-01 12:06 | 9.25008 | 53.08557 | 34844 ft | 462 kts | 90° |
| 2026-05-01 12:06 | 9.25025 | 53.15425 | 34844 ft | 463 kts | 91° |
| 2026-05-01 12:07 | 9.25041 | 53.22240 | 34830 ft | 462 kts | 91° |
| 2026-05-01 12:07 | 9.25055 | 53.28998 | 34820 ft | 461 kts | 90° |
| 2026-05-01 12:08 | 9.25069 | 53.35736 | 34827 ft | 461 kts | 90° |
| 2026-05-01 12:08 | 9.25081 | 53.42538 | 34832 ft | 459 kts | 91° |
| 2026-05-01 12:09 | 9.25091 | 53.49262 | 34833 ft | 460 kts | 91° |
| 2026-05-01 12:09 | 9.25100 | 53.56022 | 34838 ft | 459 kts | 91° |
| 2026-05-01 12:10 | 9.25112 | 53.66204 | 34845 ft | 461 kts | 91° |
| 2026-05-01 12:11 | 9.25121 | 53.76339 | 34848 ft | 459 kts | 91° |
| 2026-05-01 12:11 | 9.25126 | 53.83138 | 34841 ft | 459 kts | 91° |
| 2026-05-01 12:12 | 9.25128 | 53.88732 | 34826 ft | 457 kts | 91° |
| 2026-05-01 12:12 | 9.25130 | 53.96559 | 34823 ft | 458 kts | 91° |
| 2026-05-01 12:13 | 9.25131 | 54.03311 | 34826 ft | 460 kts | 91° |
| 2026-05-01 12:13 | 9.25130 | 54.10044 | 34823 ft | 458 kts | 91° |
| 2026-05-01 12:14 | 9.25128 | 54.16708 | 34825 ft | 457 kts | 91° |
| 2026-05-01 12:14 | 9.25125 | 54.23461 | 34827 ft | 458 kts | 91° |
| 2026-05-01 12:15 | 9.25120 | 54.30236 | 34825 ft | 459 kts | 91° |
| 2026-05-01 12:15 | 9.25114 | 54.36976 | 34833 ft | 461 kts | 91° |
| 2026-05-01 12:16 | 9.25108 | 54.43684 | 34825 ft | 461 kts | 91° |
| 2026-05-01 12:16 | 9.25099 | 54.50475 | 34831 ft | 460 kts | 91° |
| 2026-05-01 12:17 | 9.25090 | 54.57267 | 34837 ft | 460 kts | 91° |
| 2026-05-01 12:17 | 9.25079 | 54.63983 | 34845 ft | 461 kts | 91° |
| 2026-05-01 12:18 | 9.25067 | 54.70772 | 34847 ft | 461 kts | 91° |
| 2026-05-01 12:18 | 9.25053 | 54.77520 | 34842 ft | 461 kts | 91° |
| 2026-05-01 12:19 | 9.25042 | 54.83120 | 34844 ft | 461 kts | 91° |
| 2026-05-01 12:19 | 9.25023 | 54.90841 | 34848 ft | 462 kts | 91° |
| 2026-05-01 12:20 | 9.25009 | 54.96425 | 34858 ft | 461 kts | 91° |
| 2026-05-01 12:20 | 9.24991 | 55.03199 | 34843 ft | 462 kts | 91° |
| 2026-05-01 12:21 | 9.24972 | 55.09945 | 34847 ft | 463 kts | 91° |
| 2026-05-01 12:21 | 9.24948 | 55.17884 | 34838 ft | 462 kts | 91° |
| 2026-05-01 12:22 | 9.24930 | 55.23581 | 34837 ft | 461 kts | 91° |
| 2026-05-01 12:22 | 9.24903 | 55.31438 | 34838 ft | 461 kts | 91° |
| 2026-05-01 12:23 | 9.24882 | 55.37162 | 34840 ft | 463 kts | 91° |
| 2026-05-01 12:23 | 9.24852 | 55.45059 | 34843 ft | 463 kts | 91° |
| 2026-05-01 12:24 | 9.24830 | 55.50710 | 34843 ft | 463 kts | 91° |
| 2026-05-01 12:24 | 9.24801 | 55.57524 | 34843 ft | 463 kts | 91° |
| 2026-05-01 12:25 | 9.24757 | 55.67678 | 34848 ft | 462 kts | 91° |
| 2026-05-01 12:26 | 9.24725 | 55.74445 | 34848 ft | 464 kts | 91° |
| 2026-05-01 12:26 | 9.24676 | 55.84651 | 34849 ft | 464 kts | 91° |
| 2026-05-01 12:27 | 9.24623 | 55.94903 | 34848 ft | 464 kts | 90° |
| 2026-05-01 12:28 | 9.24568 | 56.05078 | 34844 ft | 462 kts | 90° |
| 2026-05-01 12:29 | 9.24511 | 56.15169 | 34845 ft | 462 kts | 90° |
| 2026-05-01 12:29 | 9.24442 | 56.26540 | 34845 ft | 463 kts | 90° |
| 2026-05-01 12:30 | 9.24385 | 56.35592 | 34843 ft | 461 kts | 90° |
| 2026-05-01 12:31 | 9.24341 | 56.42371 | 34837 ft | 461 kts | 90° |
| 2026-05-01 12:31 | 9.24296 | 56.49141 | 34846 ft | 462 kts | 90° |
| 2026-05-01 12:32 | 9.24249 | 56.56008 | 34843 ft | 462 kts | 90° |
| 2026-05-01 12:32 | 9.24176 | 56.66201 | 34835 ft | 462 kts | 90° |
| 2026-05-01 12:33 | 9.24127 | 56.72950 | 34845 ft | 460 kts | 90° |
| 2026-05-01 12:33 | 9.24066 | 56.80907 | 34851 ft | 460 kts | 90° |
| 2026-05-01 12:34 | 9.24023 | 56.86527 | 34842 ft | 462 kts | 90° |
| 2026-05-01 12:34 | 9.23968 | 56.93329 | 34848 ft | 461 kts | 90° |
| 2026-05-01 12:35 | 9.23913 | 57.00133 | 34845 ft | 459 kts | 90° |
| 2026-05-01 12:35 | 9.23848 | 57.07951 | 34847 ft | 460 kts | 90° |
| 2026-05-01 12:36 | 9.23799 | 57.13613 | 34842 ft | 460 kts | 90° |
| 2026-05-01 12:36 | 9.23740 | 57.20440 | 34846 ft | 459 kts | 90° |
| 2026-05-01 12:37 | 9.23680 | 57.27233 | 34846 ft | 462 kts | 90° |
| 2026-05-01 12:37 | 9.23618 | 57.33981 | 34852 ft | 458 kts | 90° |
| 2026-05-01 12:38 | 9.23556 | 57.40736 | 34838 ft | 460 kts | 90° |
| 2026-05-01 12:38 | 9.23492 | 57.47470 | 34843 ft | 458 kts | 90° |
| 2026-05-01 12:39 | 9.23426 | 57.54278 | 34841 ft | 459 kts | 90° |
| 2026-05-01 12:39 | 9.23360 | 57.61002 | 34849 ft | 459 kts | 90° |
| 2026-05-01 12:40 | 9.23293 | 57.67744 | 34850 ft | 460 kts | 90° |
| 2026-05-01 12:40 | 9.23224 | 57.74473 | 34862 ft | 457 kts | 90° |
| 2026-05-01 12:41 | 9.23155 | 57.81108 | 34870 ft | 457 kts | 90° |
| 2026-05-01 12:41 | 9.23084 | 57.87864 | 34845 ft | 461 kts | 91° |
| 2026-05-01 12:42 | 9.23011 | 57.94642 | 34842 ft | 459 kts | 90° |
| 2026-05-01 12:42 | 9.22937 | 58.01371 | 34843 ft | 459 kts | 91° |
| 2026-05-01 12:43 | 9.22862 | 58.08118 | 34847 ft | 459 kts | 91° |
| 2026-05-01 12:43 | 9.22779 | 58.14868 | 34848 ft | 457 kts | 91° |
| 2026-05-01 12:44 | 9.22694 | 58.21615 | 34844 ft | 460 kts | 91° |
| 2026-05-01 12:45 | 9.22521 | 58.35109 | 34845 ft | 456 kts | 91° |
| 2026-05-01 12:45 | 9.22433 | 58.41774 | 34844 ft | 457 kts | 91° |
| 2026-05-01 12:46 | 9.22344 | 58.48510 | 34845 ft | 458 kts | 91° |
| 2026-05-01 12:46 | 9.22252 | 58.55279 | 34844 ft | 458 kts | 91° |
| 2026-05-01 12:47 | 9.22161 | 58.61946 | 34848 ft | 455 kts | 91° |
| 2026-05-01 12:47 | 9.22068 | 58.68681 | 34861 ft | 458 kts | 91° |
| 2026-05-01 12:48 | 9.21974 | 58.75372 | 34860 ft | 454 kts | 91° |
| 2026-05-01 12:48 | 9.21879 | 58.82084 | 34862 ft | 455 kts | 91° |
| 2026-05-01 12:49 | 9.21784 | 58.88685 | 34868 ft | 455 kts | 91° |
| 2026-05-01 12:49 | 9.21686 | 58.95398 | 34866 ft | 453 kts | 91° |
| 2026-05-01 12:50 | 9.21588 | 59.02060 | 34866 ft | 453 kts | 91° |
| 2026-05-01 12:50 | 9.21488 | 59.08691 | 34864 ft | 455 kts | 91° |
| 2026-05-01 12:51 | 9.21387 | 59.15400 | 34873 ft | 454 kts | 91° |
| 2026-05-01 12:52 | 9.21233 | 59.25396 | 34858 ft | 455 kts | 91° |
| 2026-05-01 12:52 | 9.21077 | 59.35372 | 34845 ft | 454 kts | 91° |
| 2026-05-01 12:53 | 9.20917 | 59.45423 | 34851 ft | 454 kts | 91° |
| 2026-05-01 12:54 | 9.20810 | 59.52047 | 34842 ft | 455 kts | 91° |
| 2026-05-01 12:54 | 9.20646 | 59.62104 | 34850 ft | 453 kts | 91° |
| 2026-05-01 12:55 | 9.20479 | 59.72111 | 34857 ft | 454 kts | 92° |
| 2026-05-01 12:56 | 9.20367 | 59.78768 | 34850 ft | 454 kts | 92° |
| 2026-05-01 12:56 | 9.20253 | 59.85435 | 34850 ft | 457 kts | 92° |
| 2026-05-01 12:57 | 9.20137 | 59.92153 | 34857 ft | 454 kts | 92° |
| 2026-05-01 12:57 | 9.20916 | 60.02141 | 34851 ft | 459 kts | 74° |
| 2026-05-01 12:58 | 9.23237 | 60.08394 | 34863 ft | 460 kts | 70° |
| 2026-05-01 12:59 | 9.26855 | 60.17731 | 34859 ft | 460 kts | 70° |
| 2026-05-01 12:59 | 9.30481 | 60.27108 | 34863 ft | 460 kts | 70° |
| 2026-05-01 13:00 | 9.34134 | 60.36566 | 34868 ft | 460 kts | 70° |
| 2026-05-01 13:01 | 9.37759 | 60.45965 | 34861 ft | 461 kts | 70° |
| 2026-05-01 13:02 | 9.41408 | 60.55432 | 34852 ft | 461 kts | 70° |
| 2026-05-01 13:07 | 9.68013 | 61.24735 | 34865 ft | 462 kts | 70° |
| 2026-05-01 13:08 | 9.70436 | 61.31070 | 34866 ft | 463 kts | 70° |
| 2026-05-01 13:08 | 9.72887 | 61.37482 | 34866 ft | 463 kts | 70° |
| 2026-05-01 13:09 | 9.75299 | 61.43796 | 34865 ft | 462 kts | 70° |
| 2026-05-01 13:09 | 9.77721 | 61.50138 | 34869 ft | 462 kts | 70° |
| 2026-05-01 13:10 | 9.80148 | 61.56501 | 34864 ft | 463 kts | 70° |
| 2026-05-01 13:10 | 9.82551 | 61.62804 | 34864 ft | 464 kts | 70° |
| 2026-05-01 13:11 | 9.84963 | 61.69133 | 34871 ft | 463 kts | 70° |
| 2026-05-01 13:11 | 9.87407 | 61.75551 | 34869 ft | 463 kts | 70° |
| 2026-05-01 13:12 | 9.89816 | 61.81882 | 34866 ft | 462 kts | 70° |
| 2026-05-01 13:12 | 9.92207 | 61.88169 | 34857 ft | 462 kts | 70° |
| 2026-05-01 13:13 | 9.94628 | 61.94538 | 34846 ft | 462 kts | 70° |
| 2026-05-01 13:13 | 9.97047 | 62.00907 | 34848 ft | 463 kts | 70° |
| 2026-05-01 13:14 | 9.99453 | 62.07246 | 34854 ft | 462 kts | 70° |
| 2026-05-01 13:14 | 10.01864 | 62.13602 | 34868 ft | 462 kts | 70° |
| 2026-05-01 13:15 | 10.04279 | 62.19973 | 34869 ft | 462 kts | 70° |
| 2026-05-01 13:15 | 10.06684 | 62.26320 | 34866 ft | 462 kts | 70° |
| 2026-05-01 13:16 | 10.09080 | 62.32649 | 34865 ft | 462 kts | 70° |
| 2026-05-01 13:16 | 10.11473 | 62.38976 | 34866 ft | 463 kts | 70° |
| 2026-05-01 13:17 | 10.16256 | 62.51628 | 34867 ft | 462 kts | 70° |
| 2026-05-01 13:18 | 10.19844 | 62.61132 | 34864 ft | 462 kts | 70° |
| 2026-05-01 13:18 | 10.22242 | 62.67489 | 34868 ft | 461 kts | 70° |
| 2026-05-01 13:19 | 10.24647 | 62.73867 | 34868 ft | 462 kts | 70° |
| 2026-05-01 13:20 | 10.28246 | 62.83423 | 34870 ft | 462 kts | 70° |
| 2026-05-01 13:20 | 10.30658 | 62.89832 | 34867 ft | 462 kts | 70° |
| 2026-05-01 13:21 | 10.34257 | 62.99403 | 34869 ft | 461 kts | 70° |
| 2026-05-01 13:21 | 10.36659 | 63.05796 | 34864 ft | 462 kts | 70° |
| 2026-05-01 13:22 | 10.39042 | 63.12143 | 34870 ft | 461 kts | 70° |
| 2026-05-01 13:22 | 10.41441 | 63.18537 | 34866 ft | 463 kts | 70° |
| 2026-05-01 13:23 | 10.43835 | 63.24923 | 34867 ft | 462 kts | 70° |
| 2026-05-01 13:23 | 10.46227 | 63.31307 | 34865 ft | 463 kts | 70° |
| 2026-05-01 13:24 | 10.48605 | 63.37658 | 34866 ft | 463 kts | 69° |
| 2026-05-01 13:25 | 10.52157 | 63.47150 | 34865 ft | 462 kts | 70° |
| 2026-05-01 13:25 | 10.54541 | 63.53531 | 34866 ft | 463 kts | 69° |
| 2026-05-01 13:26 | 10.56946 | 63.59969 | 34863 ft | 463 kts | 69° |
| 2026-05-01 13:26 | 10.59354 | 63.66420 | 34869 ft | 466 kts | 70° |
| 2026-05-01 13:27 | 10.61762 | 63.72874 | 34870 ft | 464 kts | 70° |
| 2026-05-01 13:27 | 10.65372 | 63.82560 | 34869 ft | 464 kts | 69° |
| 2026-05-01 13:28 | 10.68953 | 63.92181 | 34870 ft | 466 kts | 70° |
| 2026-05-01 13:29 | 10.73722 | 64.05006 | 34868 ft | 466 kts | 69° |
| 2026-05-01 13:31 | 10.80851 | 64.24212 | 34885 ft | 466 kts | 70° |
| 2026-05-01 13:32 | 10.86838 | 64.40376 | 34867 ft | 467 kts | 70° |
| 2026-05-01 13:33 | 10.92825 | 64.56565 | 34870 ft | 467 kts | 70° |
| 2026-05-01 13:34 | 10.97607 | 64.69520 | 34872 ft | 466 kts | 70° |
| 2026-05-01 13:35 | 11.01180 | 64.79211 | 34872 ft | 468 kts | 70° |
| 2026-05-01 13:36 | 11.04741 | 64.88824 | 34868 ft | 469 kts | 69° |
| 2026-05-01 13:36 | 11.08345 | 64.98474 | 34869 ft | 467 kts | 69° |
| 2026-05-01 13:37 | 11.10755 | 65.04934 | 34869 ft | 468 kts | 69° |
| 2026-05-01 13:37 | 11.13167 | 65.11409 | 34866 ft | 468 kts | 69° |
| 2026-05-01 13:38 | 11.16780 | 65.21116 | 34869 ft | 468 kts | 69° |
| 2026-05-01 13:39 | 11.19191 | 65.27599 | 34875 ft | 468 kts | 69° |
| 2026-05-01 13:39 | 11.21580 | 65.34028 | 34882 ft | 467 kts | 70° |
| 2026-05-01 13:40 | 11.23966 | 65.40453 | 34885 ft | 466 kts | 70° |
| 2026-05-01 13:40 | 11.26357 | 65.46899 | 34877 ft | 466 kts | 69° |
| 2026-05-01 13:41 | 11.28750 | 65.53353 | 34877 ft | 468 kts | 69° |
| 2026-05-01 13:41 | 11.31133 | 65.59785 | 34862 ft | 466 kts | 69° |
| 2026-05-01 13:42 | 11.33513 | 65.66215 | 34870 ft | 466 kts | 70° |
| 2026-05-01 13:42 | 11.35915 | 65.72708 | 34867 ft | 468 kts | 70° |
| 2026-05-01 13:43 | 11.38282 | 65.79112 | 34862 ft | 467 kts | 70° |
| 2026-05-01 13:43 | 11.40678 | 65.85598 | 34867 ft | 466 kts | 70° |
| 2026-05-01 13:44 | 11.43049 | 65.92021 | 34870 ft | 467 kts | 70° |
| 2026-05-01 13:44 | 11.45426 | 65.98467 | 34868 ft | 467 kts | 70° |
| 2026-05-01 13:45 | 11.47800 | 66.04909 | 34876 ft | 472 kts | 70° |
| 2026-05-01 13:45 | 11.49011 | 66.08199 | 35204 ft | 474 kts | 70° |
| 2026-05-01 13:45 | 11.50220 | 66.11482 | 35887 ft | 469 kts | 70° |
| 2026-05-01 13:45 | 11.51414 | 66.14726 | 36548 ft | 464 kts | 70° |
| 2026-05-01 13:46 | 11.52573 | 66.17876 | 36864 ft | 465 kts | 70° |
| 2026-05-01 13:46 | 11.54942 | 66.24319 | 36867 ft | 465 kts | 70° |
| 2026-05-01 13:47 | 11.57306 | 66.30754 | 36867 ft | 464 kts | 70° |
| 2026-05-01 13:47 | 11.59663 | 66.37176 | 36867 ft | 464 kts | 70° |
| 2026-05-01 13:48 | 11.62002 | 66.43552 | 36867 ft | 464 kts | 70° |
| 2026-05-01 13:48 | 11.64336 | 66.49919 | 36872 ft | 466 kts | 70° |
| 2026-05-01 13:49 | 11.66678 | 66.56315 | 36879 ft | 464 kts | 70° |
| 2026-05-01 13:49 | 11.68990 | 66.62631 | 36875 ft | 464 kts | 70° |
| 2026-05-01 13:50 | 11.71303 | 66.68955 | 36870 ft | 465 kts | 70° |
| 2026-05-01 13:50 | 11.73637 | 66.75343 | 36872 ft | 464 kts | 70° |
| 2026-05-01 13:51 | 11.75988 | 66.81783 | 36870 ft | 466 kts | 70° |
| 2026-05-01 13:51 | 11.78313 | 66.88155 | 36869 ft | 466 kts | 70° |
| 2026-05-01 13:52 | 11.80646 | 66.94555 | 36869 ft | 465 kts | 70° |
| 2026-05-01 13:52 | 11.82967 | 67.00925 | 36868 ft | 466 kts | 70° |
| 2026-05-01 13:53 | 11.85242 | 67.07175 | 36872 ft | 465 kts | 70° |
| 2026-05-01 13:53 | 11.88729 | 67.16766 | 36873 ft | 467 kts | 70° |
| 2026-05-01 13:54 | 11.91056 | 67.23172 | 36864 ft | 464 kts | 70° |
| 2026-05-01 13:54 | 11.93371 | 67.29549 | 36871 ft | 466 kts | 70° |
| 2026-05-01 13:55 | 11.95658 | 67.35976 | 36850 ft | 462 kts | 74° |
| 2026-05-01 13:55 | 11.96853 | 67.42614 | 36866 ft | 464 kts | 82° |
| 2026-05-01 13:56 | 11.97792 | 67.49322 | 36872 ft | 463 kts | 82° |
| 2026-05-01 13:56 | 11.98724 | 67.56016 | 36868 ft | 461 kts | 82° |
| 2026-05-01 13:57 | 11.99655 | 67.62714 | 36870 ft | 463 kts | 82° |
| 2026-05-01 13:57 | 12.00587 | 67.69447 | 36874 ft | 462 kts | 82° |
| 2026-05-01 13:58 | 12.01503 | 67.76070 | 36874 ft | 459 kts | 82° |
| 2026-05-01 13:58 | 12.02426 | 67.82760 | 36878 ft | 460 kts | 82° |
| 2026-05-01 13:59 | 12.03342 | 67.89406 | 36875 ft | 461 kts | 82° |
| 2026-05-01 13:59 | 12.04262 | 67.96099 | 36859 ft | 459 kts | 82° |
| 2026-05-01 14:00 | 12.05179 | 68.02779 | 36869 ft | 459 kts | 82° |
| 2026-05-01 14:00 | 12.06091 | 68.09441 | 36869 ft | 459 kts | 82° |
| 2026-05-01 14:01 | 12.07003 | 68.16109 | 36861 ft | 458 kts | 82° |
| 2026-05-01 14:01 | 12.07902 | 68.22692 | 36863 ft | 459 kts | 82° |
| 2026-05-01 14:02 | 12.08812 | 68.29370 | 36871 ft | 460 kts | 82° |
| 2026-05-01 14:02 | 12.09723 | 68.36070 | 36874 ft | 459 kts | 82° |
| 2026-05-01 14:03 | 12.10626 | 68.42721 | 36861 ft | 459 kts | 82° |
| 2026-05-01 14:03 | 12.11527 | 68.49374 | 36861 ft | 458 kts | 82° |
| 2026-05-01 14:04 | 12.12429 | 68.56039 | 36867 ft | 459 kts | 82° |
| 2026-05-01 14:04 | 12.13323 | 68.62663 | 36864 ft | 458 kts | 82° |
| 2026-05-01 14:05 | 12.14217 | 68.69300 | 36862 ft | 458 kts | 83° |
| 2026-05-01 14:05 | 12.15115 | 68.75977 | 36863 ft | 459 kts | 83° |
| 2026-05-01 14:06 | 12.16010 | 68.82640 | 36865 ft | 457 kts | 83° |
| 2026-05-01 14:06 | 12.16896 | 68.89248 | 36865 ft | 457 kts | 83° |
| 2026-05-01 14:07 | 12.17775 | 68.95823 | 36862 ft | 457 kts | 82° |
| 2026-05-01 14:08 | 12.19117 | 69.05765 | 36869 ft | 458 kts | 82° |
| 2026-05-01 14:08 | 12.20023 | 69.12405 | 36868 ft | 457 kts | 82° |
| 2026-05-01 14:09 | 12.20924 | 69.19029 | 36868 ft | 457 kts | 82° |
| 2026-05-01 14:09 | 12.21821 | 69.25633 | 36859 ft | 457 kts | 82° |
| 2026-05-01 14:10 | 12.22728 | 69.32324 | 36854 ft | 458 kts | 82° |
| 2026-05-01 14:10 | 12.23628 | 69.38982 | 36855 ft | 457 kts | 82° |
| 2026-05-01 14:11 | 12.24525 | 69.45624 | 36861 ft | 457 kts | 82° |
| 2026-05-01 14:11 | 12.25873 | 69.55642 | 36863 ft | 457 kts | 82° |
| 2026-05-01 14:12 | 12.26762 | 69.62259 | 36862 ft | 458 kts | 82° |
| 2026-05-01 14:12 | 12.27647 | 69.68855 | 36873 ft | 457 kts | 82° |
| 2026-05-01 14:13 | 12.28529 | 69.75446 | 36873 ft | 455 kts | 82° |
| 2026-05-01 14:13 | 12.29420 | 69.82111 | 36872 ft | 457 kts | 83° |
| 2026-05-01 14:14 | 12.30306 | 69.88760 | 36870 ft | 456 kts | 83° |
| 2026-05-01 14:14 | 12.31196 | 69.95443 | 36870 ft | 458 kts | 82° |
| 2026-05-01 14:15 | 12.32073 | 70.02045 | 36868 ft | 458 kts | 82° |
| 2026-05-01 14:15 | 12.32950 | 70.08659 | 36868 ft | 456 kts | 83° |
| 2026-05-01 14:16 | 12.33825 | 70.15270 | 36866 ft | 456 kts | 83° |
| 2026-05-01 14:16 | 12.34704 | 70.21922 | 36866 ft | 457 kts | 83° |
| 2026-05-01 14:17 | 12.35581 | 70.28558 | 36866 ft | 457 kts | 82° |
| 2026-05-01 14:17 | 12.36461 | 70.35239 | 36866 ft | 459 kts | 82° |
| 2026-05-01 14:18 | 12.37336 | 70.41894 | 36870 ft | 459 kts | 82° |
| 2026-05-01 14:18 | 12.38210 | 70.48545 | 36857 ft | 458 kts | 82° |
| 2026-05-01 14:19 | 12.39089 | 70.55252 | 36854 ft | 458 kts | 83° |
| 2026-05-01 14:19 | 12.39961 | 70.61920 | 36839 ft | 458 kts | 83° |
| 2026-05-01 14:20 | 12.41270 | 70.71957 | 36852 ft | 459 kts | 83° |
| 2026-05-01 14:21 | 12.42136 | 70.78609 | 36852 ft | 459 kts | 83° |
| 2026-05-01 14:21 | 12.43008 | 70.85326 | 36866 ft | 460 kts | 83° |
| 2026-05-01 14:22 | 12.44301 | 70.95302 | 36860 ft | 460 kts | 83° |
| 2026-05-01 14:22 | 12.45169 | 71.02013 | 36869 ft | 461 kts | 83° |
| 2026-05-01 14:23 | 12.46030 | 71.08694 | 36865 ft | 460 kts | 83° |
| 2026-05-01 14:23 | 12.46894 | 71.15404 | 36863 ft | 461 kts | 83° |
| 2026-05-01 14:24 | 12.47751 | 71.22074 | 36862 ft | 460 kts | 83° |
| 2026-05-01 14:24 | 12.48646 | 71.28817 | 36874 ft | 461 kts | 82° |
| 2026-05-01 14:25 | 12.49572 | 71.35525 | 36868 ft | 460 kts | 82° |
| 2026-05-01 14:25 | 12.50487 | 71.42180 | 36859 ft | 460 kts | 82° |
| 2026-05-01 14:26 | 12.51861 | 71.52222 | 36865 ft | 461 kts | 82° |
| 2026-05-01 14:27 | 12.52781 | 71.58961 | 36864 ft | 460 kts | 82° |
| 2026-05-01 14:27 | 12.53692 | 71.65652 | 36854 ft | 460 kts | 82° |
| 2026-05-01 14:28 | 12.55059 | 71.75714 | 36861 ft | 460 kts | 82° |
| 2026-05-01 14:28 | 12.55971 | 71.82446 | 36857 ft | 459 kts | 82° |
| 2026-05-01 14:29 | 12.56872 | 71.89108 | 36845 ft | 460 kts | 82° |
| 2026-05-01 14:30 | 12.58681 | 72.02509 | 36846 ft | 460 kts | 82° |
| 2026-05-01 14:31 | 12.60047 | 72.12508 | 36850 ft | 461 kts | 82° |
| 2026-05-01 14:31 | 12.60955 | 72.19169 | 36858 ft | 460 kts | 82° |
| 2026-05-01 14:32 | 12.61865 | 72.25866 | 36861 ft | 460 kts | 82° |
| 2026-05-01 14:32 | 12.62774 | 72.32559 | 36863 ft | 460 kts | 82° |
| 2026-05-01 14:33 | 12.63678 | 72.39239 | 36866 ft | 462 kts | 82° |
| 2026-05-01 14:33 | 12.64579 | 72.45908 | 36867 ft | 460 kts | 82° |
| 2026-05-01 14:34 | 12.65484 | 72.52615 | 36865 ft | 460 kts | 82° |
| 2026-05-01 14:34 | 12.66386 | 72.59316 | 36860 ft | 460 kts | 82° |
| 2026-05-01 14:35 | 12.67287 | 72.66022 | 36870 ft | 460 kts | 82° |
| 2026-05-01 14:35 | 12.68190 | 72.72759 | 36873 ft | 459 kts | 82° |
| 2026-05-01 14:36 | 12.69080 | 72.79407 | 36859 ft | 459 kts | 82° |
| 2026-05-01 14:36 | 12.69971 | 72.86083 | 36860 ft | 460 kts | 82° |
| 2026-05-01 14:37 | 12.70858 | 72.92734 | 36849 ft | 460 kts | 82° |
| 2026-05-01 14:37 | 12.71738 | 72.99352 | 36845 ft | 460 kts | 82° |
| 2026-05-01 14:38 | 12.72619 | 73.05986 | 36840 ft | 460 kts | 82° |
| 2026-05-01 14:38 | 12.73499 | 73.12624 | 36853 ft | 459 kts | 82° |
| 2026-05-01 14:39 | 12.74382 | 73.19301 | 36843 ft | 459 kts | 82° |
| 2026-05-01 14:39 | 12.75267 | 73.25999 | 36846 ft | 460 kts | 82° |
| 2026-05-01 14:40 | 12.76146 | 73.32673 | 36853 ft | 461 kts | 82° |
| 2026-05-01 14:40 | 12.77031 | 73.39400 | 36843 ft | 459 kts | 82° |
| 2026-05-01 14:41 | 12.77904 | 73.46061 | 36862 ft | 460 kts | 82° |
| 2026-05-01 14:41 | 12.78738 | 73.52784 | 36863 ft | 460 kts | 82° |
| 2026-05-01 14:42 | 12.79561 | 73.59471 | 36864 ft | 460 kts | 82° |
| 2026-05-01 14:42 | 12.80386 | 73.66176 | 36868 ft | 459 kts | 82° |
| 2026-05-01 14:43 | 12.81169 | 73.72549 | 36868 ft | 462 kts | 82° |
| 2026-05-01 14:43 | 12.81992 | 73.79261 | 36863 ft | 461 kts | 82° |
| 2026-05-01 14:44 | 12.82817 | 73.85992 | 36854 ft | 462 kts | 82° |
| 2026-05-01 14:44 | 12.84046 | 73.96055 | 36849 ft | 460 kts | 82° |
| 2026-05-01 14:45 | 12.85269 | 74.06098 | 36842 ft | 461 kts | 82° |
| 2026-05-01 14:46 | 12.86082 | 74.12785 | 36852 ft | 463 kts | 82° |
| 2026-05-01 14:46 | 12.87303 | 74.22869 | 36852 ft | 461 kts | 82° |
| 2026-05-01 14:47 | 12.88108 | 74.29530 | 36849 ft | 462 kts | 82° |
| 2026-05-01 14:48 | 12.89312 | 74.39529 | 36851 ft | 463 kts | 82° |
| 2026-05-01 14:48 | 12.90513 | 74.49527 | 36854 ft | 461 kts | 82° |
| 2026-05-01 14:49 | 12.92106 | 74.62844 | 36861 ft | 461 kts | 82° |
| 2026-05-01 14:50 | 12.93692 | 74.76158 | 36859 ft | 462 kts | 82° |
| 2026-05-01 14:51 | 12.94882 | 74.86189 | 36865 ft | 464 kts | 82° |
| 2026-05-01 14:52 | 12.95976 | 74.96178 | 36864 ft | 464 kts | 83° |
| 2026-05-01 14:53 | 12.97028 | 75.06275 | 36873 ft | 464 kts | 83° |
| 2026-05-01 14:53 | 12.97727 | 75.12986 | 36872 ft | 464 kts | 83° |
| 2026-05-01 14:54 | 12.98428 | 75.19713 | 36880 ft | 464 kts | 83° |
| 2026-05-01 14:54 | 12.99122 | 75.26392 | 36876 ft | 463 kts | 83° |
| 2026-05-01 14:55 | 12.99820 | 75.33117 | 36896 ft | 465 kts | 83° |
| 2026-05-01 14:55 | 13.00519 | 75.39880 | 36921 ft | 463 kts | 83° |
| 2026-05-01 14:56 | 13.01211 | 75.46584 | 36939 ft | 464 kts | 83° |
| 2026-05-01 14:56 | 13.01904 | 75.53307 | 36950 ft | 464 kts | 83° |
| 2026-05-01 14:57 | 13.02599 | 75.60079 | 36978 ft | 466 kts | 83° |
| 2026-05-01 14:57 | 13.03633 | 75.70174 | 37008 ft | 467 kts | 83° |
| 2026-05-01 14:58 | 13.04317 | 75.76879 | 37022 ft | 465 kts | 83° |
| 2026-05-01 14:58 | 13.05002 | 75.83607 | 37017 ft | 463 kts | 83° |
| 2026-05-01 14:59 | 13.05683 | 75.90317 | 37015 ft | 465 kts | 83° |
| 2026-05-01 14:59 | 13.06370 | 75.97097 | 37022 ft | 466 kts | 83° |
| 2026-05-01 15:00 | 13.07367 | 76.07230 | 37029 ft | 467 kts | 84° |
| 2026-05-01 15:01 | 13.07951 | 76.14048 | 37025 ft | 466 kts | 84° |
| 2026-05-01 15:01 | 13.08534 | 76.20860 | 37036 ft | 465 kts | 84° |
| 2026-05-01 15:02 | 13.09113 | 76.27617 | 37039 ft | 466 kts | 84° |
| 2026-05-01 15:02 | 13.09698 | 76.34438 | 37039 ft | 467 kts | 84° |
| 2026-05-01 15:03 | 13.10281 | 76.41264 | 37039 ft | 467 kts | 84° |
| 2026-05-01 15:03 | 13.10862 | 76.48074 | 37039 ft | 467 kts | 84° |
| 2026-05-01 15:04 | 13.11439 | 76.54861 | 37037 ft | 467 kts | 84° |
| 2026-05-01 15:04 | 13.12020 | 76.61713 | 37035 ft | 467 kts | 84° |
| 2026-05-01 15:05 | 13.12598 | 76.68556 | 37031 ft | 468 kts | 84° |
| 2026-05-01 15:05 | 13.13171 | 76.75362 | 37027 ft | 468 kts | 84° |
| 2026-05-01 15:06 | 13.13744 | 76.82180 | 37025 ft | 468 kts | 84° |
| 2026-05-01 15:06 | 13.14308 | 76.88922 | 37021 ft | 469 kts | 84° |
| 2026-05-01 15:07 | 13.14879 | 76.95763 | 37018 ft | 469 kts | 84° |
| 2026-05-01 15:07 | 13.15443 | 77.02545 | 37014 ft | 469 kts | 84° |
| 2026-05-01 15:08 | 13.16003 | 77.09290 | 37021 ft | 468 kts | 84° |
| 2026-05-01 15:08 | 13.16562 | 77.16059 | 37025 ft | 468 kts | 83° |
| 2026-05-01 15:09 | 13.17115 | 77.22772 | 37033 ft | 468 kts | 84° |
| 2026-05-01 15:09 | 13.17669 | 77.29507 | 37034 ft | 468 kts | 84° |
| 2026-05-01 15:10 | 13.18219 | 77.36237 | 37036 ft | 468 kts | 83° |
| 2026-05-01 15:10 | 13.19045 | 77.46359 | 37002 ft | 469 kts | 83° |
| 2026-05-01 15:11 | 13.19869 | 77.56516 | 36982 ft | 468 kts | 83° |
| 2026-05-01 15:12 | 13.20418 | 77.63309 | 36984 ft | 468 kts | 83° |
| 2026-05-01 15:12 | 13.20567 | 77.73531 | 36987 ft | 471 kts | 93° |
| 2026-05-01 15:14 | 13.19106 | 77.90594 | 36981 ft | 472 kts | 93° |
| 2026-05-01 15:14 | 13.18216 | 78.00907 | 36993 ft | 472 kts | 93° |
| 2026-05-01 15:15 | 13.17030 | 78.14587 | 37003 ft | 472 kts | 93° |
| 2026-05-01 15:16 | 13.15833 | 78.28302 | 36991 ft | 472 kts | 93° |
| 2026-05-01 15:18 | 13.14331 | 78.45403 | 36976 ft | 471 kts | 93° |
| 2026-05-01 15:19 | 13.13119 | 78.59104 | 36960 ft | 471 kts | 93° |
| 2026-05-01 15:19 | 13.12206 | 78.69375 | 36932 ft | 471 kts | 94° |
| 2026-05-01 15:20 | 13.11286 | 78.79665 | 36912 ft | 472 kts | 93° |
| 2026-05-01 15:21 | 13.10676 | 78.86474 | 36904 ft | 471 kts | 94° |
| 2026-05-01 15:21 | 13.10064 | 78.93280 | 36886 ft | 471 kts | 94° |
| 2026-05-01 15:22 | 13.09141 | 79.03505 | 36851 ft | 470 kts | 94° |
| 2026-05-01 15:22 | 13.08523 | 79.10329 | 36853 ft | 471 kts | 94° |
| 2026-05-01 15:23 | 13.07898 | 79.17199 | 36825 ft | 471 kts | 93° |
| 2026-05-01 15:23 | 13.07278 | 79.24000 | 36846 ft | 470 kts | 93° |
| 2026-05-01 15:24 | 13.06655 | 79.30817 | 36826 ft | 471 kts | 93° |
| 2026-05-01 15:24 | 13.06029 | 79.37658 | 36822 ft | 470 kts | 93° |
| 2026-05-01 15:25 | 13.05400 | 79.44493 | 36815 ft | 471 kts | 93° |
| 2026-05-01 15:25 | 13.04765 | 79.51376 | 36791 ft | 471 kts | 93° |
| 2026-05-01 15:26 | 13.04134 | 79.58200 | 36797 ft | 471 kts | 93° |
| 2026-05-01 15:26 | 13.03497 | 79.65073 | 36777 ft | 472 kts | 93° |
| 2026-05-01 15:27 | 13.02862 | 79.71897 | 36780 ft | 472 kts | 93° |
| 2026-05-01 15:28 | 13.01910 | 79.82102 | 36789 ft | 471 kts | 93° |
| 2026-05-01 15:28 | 13.01273 | 79.88905 | 36790 ft | 472 kts | 93° |
| 2026-05-01 15:29 | 13.00312 | 79.99125 | 36782 ft | 472 kts | 93° |
| 2026-05-01 15:30 | 12.99023 | 80.12770 | 36800 ft | 473 kts | 93° |
| 2026-05-01 15:31 | 12.97133 | 80.33566 | 36797 ft | 472 kts | 93° |
| 2026-05-01 15:32 | 12.95872 | 80.47471 | 36789 ft | 473 kts | 93° |
| 2026-05-01 15:34 | 12.93958 | 80.68405 | 36793 ft | 472 kts | 93° |